<?xml version="1.0" encoding="UTF-8" standalone="no" ?>
<gpx xmlns="http://www.topografix.com/GPX/1/1" xmlns:xsi="http://www.w3.org/2001/XMLSchema-instance" xsi:schemaLocation="http://www.topografix.com/GPX/1/1 http://www.topografix.com/GPX/1/1/gpx.xsd" version="1.1" creator="VisuGPX - https://www.visugpx.com">
  <metadata>
    <name>Belvédère du diable</name>
    <desc><![CDATA[Belvédère du diable / Chalet de Carach]]></desc>
  </metadata>
  <wpt lat="42.87419" lon="2.18137">
    <ele>290.9</ele>
    <name><![CDATA[Start]]></name>
    <desc><![CDATA[2011-01-20 12:26:14]]></desc>
  </wpt>
  <wpt lat="42.8716" lon="2.17423">
    <ele>311.9</ele>
    <name><![CDATA[Lap 1]]></name>
    <desc><![CDATA[15.95km, 101:48, 9.4kph]]></desc>
  </wpt>
  <trk>
    <name><![CDATA[2011-01-20-12-26-14]]></name>
    <desc><![CDATA[101:48 - 15.9km]]></desc>
    <trkseg>
      <trkpt lat="42.87419" lon="2.18137">
        <ele>194.148</ele>
        <time>2011-01-20T12:26:16Z</time>
      </trkpt>
      <trkpt lat="42.87446" lon="2.1813">
        <ele>195.058</ele>
        <time>2011-01-20T12:26:21Z</time>
      </trkpt>
      <trkpt lat="42.87492" lon="2.18104">
        <ele>193.48</ele>
        <time>2011-01-20T12:26:30Z</time>
      </trkpt>
      <trkpt lat="42.87497" lon="2.18101">
        <ele>193.126</ele>
        <time>2011-01-20T12:26:31Z</time>
      </trkpt>
      <trkpt lat="42.87517" lon="2.18101">
        <ele>193.45</ele>
        <time>2011-01-20T12:26:35Z</time>
      </trkpt>
      <trkpt lat="42.87535" lon="2.18125">
        <ele>194.247</ele>
        <time>2011-01-20T12:26:41Z</time>
      </trkpt>
      <trkpt lat="42.87541" lon="2.18167">
        <ele>193.857</ele>
        <time>2011-01-20T12:26:48Z</time>
      </trkpt>
      <trkpt lat="42.87544" lon="2.18195">
        <ele>192.835</ele>
        <time>2011-01-20T12:26:52Z</time>
      </trkpt>
      <trkpt lat="42.87538" lon="2.18217">
        <ele>192.123</ele>
        <time>2011-01-20T12:26:56Z</time>
      </trkpt>
      <trkpt lat="42.87522" lon="2.18224">
        <ele>191.918</ele>
        <time>2011-01-20T12:26:59Z</time>
      </trkpt>
      <trkpt lat="42.87472" lon="2.18232">
        <ele>191.767</ele>
        <time>2011-01-20T12:27:09Z</time>
      </trkpt>
      <trkpt lat="42.87433" lon="2.18237">
        <ele>192.666</ele>
        <time>2011-01-20T12:27:18Z</time>
      </trkpt>
      <trkpt lat="42.87415" lon="2.18239">
        <ele>193.643</ele>
        <time>2011-01-20T12:27:23Z</time>
      </trkpt>
      <trkpt lat="42.87406" lon="2.18234">
        <ele>194.104</ele>
        <time>2011-01-20T12:27:27Z</time>
      </trkpt>
      <trkpt lat="42.87409" lon="2.1824">
        <ele>194.412</ele>
        <time>2011-01-20T12:27:30Z</time>
      </trkpt>
      <trkpt lat="42.87417" lon="2.18234">
        <ele>194.338</ele>
        <time>2011-01-20T12:27:33Z</time>
      </trkpt>
      <trkpt lat="42.87419" lon="2.18233">
        <ele>194.33</ele>
        <time>2011-01-20T12:27:34Z</time>
      </trkpt>
      <trkpt lat="42.87427" lon="2.1823">
        <ele>194.397</ele>
        <time>2011-01-20T12:27:37Z</time>
      </trkpt>
      <trkpt lat="42.87433" lon="2.18221">
        <ele>194.579</ele>
        <time>2011-01-20T12:27:42Z</time>
      </trkpt>
      <trkpt lat="42.87433" lon="2.18218">
        <ele>194.143</ele>
        <time>2011-01-20T12:27:48Z</time>
      </trkpt>
      <trkpt lat="42.87435" lon="2.18216">
        <ele>193.573</ele>
        <time>2011-01-20T12:28:10Z</time>
      </trkpt>
      <trkpt lat="42.87432" lon="2.18218">
        <ele>193.473</ele>
        <time>2011-01-20T12:28:16Z</time>
      </trkpt>
      <trkpt lat="42.8743" lon="2.1822">
        <ele>193.23</ele>
        <time>2011-01-20T12:28:32Z</time>
      </trkpt>
      <trkpt lat="42.87423" lon="2.1823">
        <ele>193.452</ele>
        <time>2011-01-20T12:28:37Z</time>
      </trkpt>
      <trkpt lat="42.87409" lon="2.18238">
        <ele>193.056</ele>
        <time>2011-01-20T12:28:43Z</time>
      </trkpt>
      <trkpt lat="42.87393" lon="2.18247">
        <ele>192.999</ele>
        <time>2011-01-20T12:28:48Z</time>
      </trkpt>
      <trkpt lat="42.8738" lon="2.1826">
        <ele>193.282</ele>
        <time>2011-01-20T12:28:53Z</time>
      </trkpt>
      <trkpt lat="42.87362" lon="2.18264">
        <ele>193.689</ele>
        <time>2011-01-20T12:28:59Z</time>
      </trkpt>
      <trkpt lat="42.87352" lon="2.18273">
        <ele>193.653</ele>
        <time>2011-01-20T12:29:03Z</time>
      </trkpt>
      <trkpt lat="42.8735" lon="2.18282">
        <ele>193.555</ele>
        <time>2011-01-20T12:29:05Z</time>
      </trkpt>
      <trkpt lat="42.87353" lon="2.18319">
        <ele>192.993</ele>
        <time>2011-01-20T12:29:11Z</time>
      </trkpt>
      <trkpt lat="42.87363" lon="2.18378">
        <ele>191.596</ele>
        <time>2011-01-20T12:29:19Z</time>
      </trkpt>
      <trkpt lat="42.87364" lon="2.18385">
        <ele>191.251</ele>
        <time>2011-01-20T12:29:20Z</time>
      </trkpt>
      <trkpt lat="42.87356" lon="2.18409">
        <ele>190.982</ele>
        <time>2011-01-20T12:29:24Z</time>
      </trkpt>
      <trkpt lat="42.87324" lon="2.18443">
        <ele>190.389</ele>
        <time>2011-01-20T12:29:32Z</time>
      </trkpt>
      <trkpt lat="42.87305" lon="2.18459">
        <ele>190.073</ele>
        <time>2011-01-20T12:29:37Z</time>
      </trkpt>
      <trkpt lat="42.87287" lon="2.18473">
        <ele>190.328</ele>
        <time>2011-01-20T12:29:43Z</time>
      </trkpt>
      <trkpt lat="42.87274" lon="2.18484">
        <ele>190.357</ele>
        <time>2011-01-20T12:29:47Z</time>
      </trkpt>
      <trkpt lat="42.87268" lon="2.18506">
        <ele>189.691</ele>
        <time>2011-01-20T12:29:51Z</time>
      </trkpt>
      <trkpt lat="42.8727" lon="2.18544">
        <ele>189.233</ele>
        <time>2011-01-20T12:29:57Z</time>
      </trkpt>
      <trkpt lat="42.87272" lon="2.18564">
        <ele>188.489</ele>
        <time>2011-01-20T12:30:01Z</time>
      </trkpt>
      <trkpt lat="42.87275" lon="2.1857">
        <ele>188.195</ele>
        <time>2011-01-20T12:30:03Z</time>
      </trkpt>
      <trkpt lat="42.8728" lon="2.18569">
        <ele>187.935</ele>
        <time>2011-01-20T12:30:07Z</time>
      </trkpt>
      <trkpt lat="42.87276" lon="2.18564">
        <ele>188.122</ele>
        <time>2011-01-20T12:30:10Z</time>
      </trkpt>
      <trkpt lat="42.87273" lon="2.18564">
        <ele>188.076</ele>
        <time>2011-01-20T12:30:11Z</time>
      </trkpt>
      <trkpt lat="42.8725" lon="2.18568">
        <ele>188.304</ele>
        <time>2011-01-20T12:30:17Z</time>
      </trkpt>
      <trkpt lat="42.87211" lon="2.18575">
        <ele>188.699</ele>
        <time>2011-01-20T12:30:26Z</time>
      </trkpt>
      <trkpt lat="42.87173" lon="2.18579">
        <ele>188.439</ele>
        <time>2011-01-20T12:30:35Z</time>
      </trkpt>
      <trkpt lat="42.87125" lon="2.18585">
        <ele>188.867</ele>
        <time>2011-01-20T12:30:46Z</time>
      </trkpt>
      <trkpt lat="42.87089" lon="2.18592">
        <ele>190.06</ele>
        <time>2011-01-20T12:30:55Z</time>
      </trkpt>
      <trkpt lat="42.87065" lon="2.18594">
        <ele>191.519</ele>
        <time>2011-01-20T12:31:02Z</time>
      </trkpt>
      <trkpt lat="42.87048" lon="2.18583">
        <ele>192.346</ele>
        <time>2011-01-20T12:31:07Z</time>
      </trkpt>
      <trkpt lat="42.87026" lon="2.18581">
        <ele>191.886</ele>
        <time>2011-01-20T12:31:12Z</time>
      </trkpt>
      <trkpt lat="42.87009" lon="2.18595">
        <ele>191.376</ele>
        <time>2011-01-20T12:31:16Z</time>
      </trkpt>
      <trkpt lat="42.87004" lon="2.18605">
        <ele>191.306</ele>
        <time>2011-01-20T12:31:18Z</time>
      </trkpt>
      <trkpt lat="42.86978" lon="2.18651">
        <ele>191.603</ele>
        <time>2011-01-20T12:31:27Z</time>
      </trkpt>
      <trkpt lat="42.86965" lon="2.18667">
        <ele>191.676</ele>
        <time>2011-01-20T12:31:31Z</time>
      </trkpt>
      <trkpt lat="42.8694" lon="2.18688">
        <ele>191.879</ele>
        <time>2011-01-20T12:31:38Z</time>
      </trkpt>
      <trkpt lat="42.86902" lon="2.1871">
        <ele>191.843</ele>
        <time>2011-01-20T12:31:48Z</time>
      </trkpt>
      <trkpt lat="42.86898" lon="2.18712">
        <ele>191.828</ele>
        <time>2011-01-20T12:31:49Z</time>
      </trkpt>
      <trkpt lat="42.86876" lon="2.18712">
        <ele>191.763</ele>
        <time>2011-01-20T12:31:54Z</time>
      </trkpt>
      <trkpt lat="42.8686" lon="2.18699">
        <ele>192.055</ele>
        <time>2011-01-20T12:31:58Z</time>
      </trkpt>
      <trkpt lat="42.86834" lon="2.1867">
        <ele>192.419</ele>
        <time>2011-01-20T12:32:06Z</time>
      </trkpt>
      <trkpt lat="42.8681" lon="2.18651">
        <ele>193.216</ele>
        <time>2011-01-20T12:32:13Z</time>
      </trkpt>
      <trkpt lat="42.86773" lon="2.18625">
        <ele>194.744</ele>
        <time>2011-01-20T12:32:23Z</time>
      </trkpt>
      <trkpt lat="42.86738" lon="2.18604">
        <ele>195.125</ele>
        <time>2011-01-20T12:32:32Z</time>
      </trkpt>
      <trkpt lat="42.86702" lon="2.18585">
        <ele>194.208</ele>
        <time>2011-01-20T12:32:41Z</time>
      </trkpt>
      <trkpt lat="42.86676" lon="2.18578">
        <ele>194.471</ele>
        <time>2011-01-20T12:32:48Z</time>
      </trkpt>
      <trkpt lat="42.86641" lon="2.18568">
        <ele>195.193</ele>
        <time>2011-01-20T12:32:56Z</time>
      </trkpt>
      <trkpt lat="42.86632" lon="2.18565">
        <ele>195.345</ele>
        <time>2011-01-20T12:32:58Z</time>
      </trkpt>
      <trkpt lat="42.86606" lon="2.18572">
        <ele>195.519</ele>
        <time>2011-01-20T12:33:04Z</time>
      </trkpt>
      <trkpt lat="42.86571" lon="2.18598">
        <ele>195.282</ele>
        <time>2011-01-20T12:33:13Z</time>
      </trkpt>
      <trkpt lat="42.86563" lon="2.18603">
        <ele>195.299</ele>
        <time>2011-01-20T12:33:15Z</time>
      </trkpt>
      <trkpt lat="42.86542" lon="2.18607">
        <ele>195.58</ele>
        <time>2011-01-20T12:33:20Z</time>
      </trkpt>
      <trkpt lat="42.86508" lon="2.18601">
        <ele>194.752</ele>
        <time>2011-01-20T12:33:27Z</time>
      </trkpt>
      <trkpt lat="42.86483" lon="2.18596">
        <ele>194.703</ele>
        <time>2011-01-20T12:33:32Z</time>
      </trkpt>
      <trkpt lat="42.86464" lon="2.18595">
        <ele>194.3</ele>
        <time>2011-01-20T12:33:37Z</time>
      </trkpt>
      <trkpt lat="42.86448" lon="2.18608">
        <ele>194.268</ele>
        <time>2011-01-20T12:33:42Z</time>
      </trkpt>
      <trkpt lat="42.86427" lon="2.18642">
        <ele>194.427</ele>
        <time>2011-01-20T12:33:50Z</time>
      </trkpt>
      <trkpt lat="42.86415" lon="2.18666">
        <ele>193.986</ele>
        <time>2011-01-20T12:33:56Z</time>
      </trkpt>
      <trkpt lat="42.8641" lon="2.18693">
        <ele>193.94</ele>
        <time>2011-01-20T12:34:01Z</time>
      </trkpt>
      <trkpt lat="42.86417" lon="2.18735">
        <ele>193.463</ele>
        <time>2011-01-20T12:34:08Z</time>
      </trkpt>
      <trkpt lat="42.86427" lon="2.18782">
        <ele>193.568</ele>
        <time>2011-01-20T12:34:16Z</time>
      </trkpt>
      <trkpt lat="42.86435" lon="2.18835">
        <ele>194.679</ele>
        <time>2011-01-20T12:34:26Z</time>
      </trkpt>
      <trkpt lat="42.86435" lon="2.18871">
        <ele>194.842</ele>
        <time>2011-01-20T12:34:33Z</time>
      </trkpt>
      <trkpt lat="42.86437" lon="2.18906">
        <ele>195.368</ele>
        <time>2011-01-20T12:34:39Z</time>
      </trkpt>
      <trkpt lat="42.86439" lon="2.18943">
        <ele>195.589</ele>
        <time>2011-01-20T12:34:46Z</time>
      </trkpt>
      <trkpt lat="42.86449" lon="2.18973">
        <ele>195.335</ele>
        <time>2011-01-20T12:34:52Z</time>
      </trkpt>
      <trkpt lat="42.86451" lon="2.18978">
        <ele>195.44</ele>
        <time>2011-01-20T12:34:53Z</time>
      </trkpt>
      <trkpt lat="42.8646" lon="2.1902">
        <ele>196.204</ele>
        <time>2011-01-20T12:35:01Z</time>
      </trkpt>
      <trkpt lat="42.8646" lon="2.19058">
        <ele>197.049</ele>
        <time>2011-01-20T12:35:08Z</time>
      </trkpt>
      <trkpt lat="42.86462" lon="2.19086">
        <ele>196.786</ele>
        <time>2011-01-20T12:35:13Z</time>
      </trkpt>
      <trkpt lat="42.8646" lon="2.19118">
        <ele>196.857</ele>
        <time>2011-01-20T12:35:19Z</time>
      </trkpt>
      <trkpt lat="42.86452" lon="2.19139">
        <ele>196.921</ele>
        <time>2011-01-20T12:35:24Z</time>
      </trkpt>
      <trkpt lat="42.86436" lon="2.19162">
        <ele>197.441</ele>
        <time>2011-01-20T12:35:30Z</time>
      </trkpt>
      <trkpt lat="42.86422" lon="2.19191">
        <ele>197.319</ele>
        <time>2011-01-20T12:35:36Z</time>
      </trkpt>
      <trkpt lat="42.86405" lon="2.19215">
        <ele>197.134</ele>
        <time>2011-01-20T12:35:42Z</time>
      </trkpt>
      <trkpt lat="42.86391" lon="2.19229">
        <ele>197.224</ele>
        <time>2011-01-20T12:35:46Z</time>
      </trkpt>
      <trkpt lat="42.86368" lon="2.19247">
        <ele>196.897</ele>
        <time>2011-01-20T12:35:52Z</time>
      </trkpt>
      <trkpt lat="42.86365" lon="2.19251">
        <ele>196.943</ele>
        <time>2011-01-20T12:35:53Z</time>
      </trkpt>
      <trkpt lat="42.86343" lon="2.19265">
        <ele>197.022</ele>
        <time>2011-01-20T12:35:59Z</time>
      </trkpt>
      <trkpt lat="42.86318" lon="2.19282">
        <ele>197.091</ele>
        <time>2011-01-20T12:36:06Z</time>
      </trkpt>
      <trkpt lat="42.86292" lon="2.19295">
        <ele>197.25</ele>
        <time>2011-01-20T12:36:14Z</time>
      </trkpt>
      <trkpt lat="42.86263" lon="2.19303">
        <ele>198.086</ele>
        <time>2011-01-20T12:36:22Z</time>
      </trkpt>
      <trkpt lat="42.86248" lon="2.19302">
        <ele>198.314</ele>
        <time>2011-01-20T12:36:26Z</time>
      </trkpt>
      <trkpt lat="42.86216" lon="2.19306">
        <ele>197.91</ele>
        <time>2011-01-20T12:36:34Z</time>
      </trkpt>
      <trkpt lat="42.86199" lon="2.19313">
        <ele>198.196</ele>
        <time>2011-01-20T12:36:39Z</time>
      </trkpt>
      <trkpt lat="42.86183" lon="2.19317">
        <ele>199.179</ele>
        <time>2011-01-20T12:36:45Z</time>
      </trkpt>
      <trkpt lat="42.86168" lon="2.19321">
        <ele>199.782</ele>
        <time>2011-01-20T12:36:51Z</time>
      </trkpt>
      <trkpt lat="42.86155" lon="2.1932">
        <ele>200.761</ele>
        <time>2011-01-20T12:36:57Z</time>
      </trkpt>
      <trkpt lat="42.86145" lon="2.19317">
        <ele>202.161</ele>
        <time>2011-01-20T12:37:02Z</time>
      </trkpt>
      <trkpt lat="42.86136" lon="2.19308">
        <ele>203.614</ele>
        <time>2011-01-20T12:37:08Z</time>
      </trkpt>
      <trkpt lat="42.86126" lon="2.19297">
        <ele>204.882</ele>
        <time>2011-01-20T12:37:14Z</time>
      </trkpt>
      <trkpt lat="42.86122" lon="2.19293">
        <ele>205.364</ele>
        <time>2011-01-20T12:37:16Z</time>
      </trkpt>
      <trkpt lat="42.86111" lon="2.1928">
        <ele>206.901</ele>
        <time>2011-01-20T12:37:23Z</time>
      </trkpt>
      <trkpt lat="42.86099" lon="2.19265">
        <ele>208.833</ele>
        <time>2011-01-20T12:37:30Z</time>
      </trkpt>
      <trkpt lat="42.86084" lon="2.19248">
        <ele>210.581</ele>
        <time>2011-01-20T12:37:38Z</time>
      </trkpt>
      <trkpt lat="42.86067" lon="2.19234">
        <ele>212.885</ele>
        <time>2011-01-20T12:37:47Z</time>
      </trkpt>
      <trkpt lat="42.86054" lon="2.19223">
        <ele>214.925</ele>
        <time>2011-01-20T12:37:55Z</time>
      </trkpt>
      <trkpt lat="42.86042" lon="2.19213">
        <ele>215.706</ele>
        <time>2011-01-20T12:38:01Z</time>
      </trkpt>
      <trkpt lat="42.86025" lon="2.19201">
        <ele>217.309</ele>
        <time>2011-01-20T12:38:09Z</time>
      </trkpt>
      <trkpt lat="42.86009" lon="2.1919">
        <ele>219.012</ele>
        <time>2011-01-20T12:38:17Z</time>
      </trkpt>
      <trkpt lat="42.8599" lon="2.19172">
        <ele>220.566</ele>
        <time>2011-01-20T12:38:27Z</time>
      </trkpt>
      <trkpt lat="42.8598" lon="2.19164">
        <ele>222.208</ele>
        <time>2011-01-20T12:38:34Z</time>
      </trkpt>
      <trkpt lat="42.8597" lon="2.19158">
        <ele>223.8</ele>
        <time>2011-01-20T12:38:40Z</time>
      </trkpt>
      <trkpt lat="42.85959" lon="2.19158">
        <ele>226.119</ele>
        <time>2011-01-20T12:38:45Z</time>
      </trkpt>
      <trkpt lat="42.85947" lon="2.19164">
        <ele>227.607</ele>
        <time>2011-01-20T12:38:51Z</time>
      </trkpt>
      <trkpt lat="42.85935" lon="2.1918">
        <ele>227.36</ele>
        <time>2011-01-20T12:38:56Z</time>
      </trkpt>
      <trkpt lat="42.85933" lon="2.19198">
        <ele>227.478</ele>
        <time>2011-01-20T12:39:00Z</time>
      </trkpt>
      <trkpt lat="42.85925" lon="2.19225">
        <ele>225.88</ele>
        <time>2011-01-20T12:39:07Z</time>
      </trkpt>
      <trkpt lat="42.8592" lon="2.19233">
        <ele>225.482</ele>
        <time>2011-01-20T12:39:09Z</time>
      </trkpt>
      <trkpt lat="42.85904" lon="2.19254">
        <ele>224.346</ele>
        <time>2011-01-20T12:39:13Z</time>
      </trkpt>
      <trkpt lat="42.85876" lon="2.19293">
        <ele>220.923</ele>
        <time>2011-01-20T12:39:20Z</time>
      </trkpt>
      <trkpt lat="42.85859" lon="2.19309">
        <ele>219.521</ele>
        <time>2011-01-20T12:39:24Z</time>
      </trkpt>
      <trkpt lat="42.85846" lon="2.19315">
        <ele>218.288</ele>
        <time>2011-01-20T12:39:27Z</time>
      </trkpt>
      <trkpt lat="42.8583" lon="2.19324">
        <ele>215.819</ele>
        <time>2011-01-20T12:39:31Z</time>
      </trkpt>
      <trkpt lat="42.85814" lon="2.19333">
        <ele>213.699</ele>
        <time>2011-01-20T12:39:35Z</time>
      </trkpt>
      <trkpt lat="42.85804" lon="2.19343">
        <ele>212.183</ele>
        <time>2011-01-20T12:39:38Z</time>
      </trkpt>
      <trkpt lat="42.85789" lon="2.19374">
        <ele>210.173</ele>
        <time>2011-01-20T12:39:44Z</time>
      </trkpt>
      <trkpt lat="42.85779" lon="2.19399">
        <ele>209.404</ele>
        <time>2011-01-20T12:39:49Z</time>
      </trkpt>
      <trkpt lat="42.8577" lon="2.19423">
        <ele>209.676</ele>
        <time>2011-01-20T12:39:54Z</time>
      </trkpt>
      <trkpt lat="42.85765" lon="2.19438">
        <ele>209.794</ele>
        <time>2011-01-20T12:39:58Z</time>
      </trkpt>
      <trkpt lat="42.85754" lon="2.19468">
        <ele>209.759</ele>
        <time>2011-01-20T12:40:05Z</time>
      </trkpt>
      <trkpt lat="42.85746" lon="2.19495">
        <ele>209.204</ele>
        <time>2011-01-20T12:40:11Z</time>
      </trkpt>
      <trkpt lat="42.85738" lon="2.19523">
        <ele>209.622</ele>
        <time>2011-01-20T12:40:17Z</time>
      </trkpt>
      <trkpt lat="42.85727" lon="2.19555">
        <ele>209.597</ele>
        <time>2011-01-20T12:40:24Z</time>
      </trkpt>
      <trkpt lat="42.85717" lon="2.19588">
        <ele>209.591</ele>
        <time>2011-01-20T12:40:31Z</time>
      </trkpt>
      <trkpt lat="42.85714" lon="2.19622">
        <ele>209.925</ele>
        <time>2011-01-20T12:40:38Z</time>
      </trkpt>
      <trkpt lat="42.85707" lon="2.19654">
        <ele>210.41</ele>
        <time>2011-01-20T12:40:45Z</time>
      </trkpt>
      <trkpt lat="42.85699" lon="2.19686">
        <ele>211.111</ele>
        <time>2011-01-20T12:40:52Z</time>
      </trkpt>
      <trkpt lat="42.85692" lon="2.1971">
        <ele>211.717</ele>
        <time>2011-01-20T12:40:58Z</time>
      </trkpt>
      <trkpt lat="42.85679" lon="2.19734">
        <ele>212.56</ele>
        <time>2011-01-20T12:41:05Z</time>
      </trkpt>
      <trkpt lat="42.85669" lon="2.19756">
        <ele>214.018</ele>
        <time>2011-01-20T12:41:12Z</time>
      </trkpt>
      <trkpt lat="42.85662" lon="2.19777">
        <ele>215.297</ele>
        <time>2011-01-20T12:41:18Z</time>
      </trkpt>
      <trkpt lat="42.85664" lon="2.19802">
        <ele>215.964</ele>
        <time>2011-01-20T12:41:24Z</time>
      </trkpt>
      <trkpt lat="42.85668" lon="2.19829">
        <ele>216.571</ele>
        <time>2011-01-20T12:41:31Z</time>
      </trkpt>
      <trkpt lat="42.85666" lon="2.19843">
        <ele>217.619</ele>
        <time>2011-01-20T12:41:36Z</time>
      </trkpt>
      <trkpt lat="42.85665" lon="2.19842">
        <ele>218.125</ele>
        <time>2011-01-20T12:41:49Z</time>
      </trkpt>
      <trkpt lat="42.85667" lon="2.19837">
        <ele>217.61</ele>
        <time>2011-01-20T12:41:54Z</time>
      </trkpt>
      <trkpt lat="42.8567" lon="2.19836">
        <ele>218.916</ele>
        <time>2011-01-20T12:42:01Z</time>
      </trkpt>
      <trkpt lat="42.85671" lon="2.19837">
        <ele>219.17</ele>
        <time>2011-01-20T12:42:06Z</time>
      </trkpt>
      <trkpt lat="42.85676" lon="2.19841">
        <ele>220.837</ele>
        <time>2011-01-20T12:42:14Z</time>
      </trkpt>
      <trkpt lat="42.8568" lon="2.19843">
        <ele>222.464</ele>
        <time>2011-01-20T12:42:20Z</time>
      </trkpt>
      <trkpt lat="42.85681" lon="2.19844">
        <ele>223.23</ele>
        <time>2011-01-20T12:42:23Z</time>
      </trkpt>
      <trkpt lat="42.85686" lon="2.19848">
        <ele>224.967</ele>
        <time>2011-01-20T12:42:29Z</time>
      </trkpt>
      <trkpt lat="42.85692" lon="2.1985">
        <ele>226.074</ele>
        <time>2011-01-20T12:42:36Z</time>
      </trkpt>
      <trkpt lat="42.85692" lon="2.19849">
        <ele>226.444</ele>
        <time>2011-01-20T12:42:42Z</time>
      </trkpt>
      <trkpt lat="42.85692" lon="2.19849">
        <ele>226.114</ele>
        <time>2011-01-20T12:42:44Z</time>
      </trkpt>
      <trkpt lat="42.85688" lon="2.19849">
        <ele>225.536</ele>
        <time>2011-01-20T12:42:47Z</time>
      </trkpt>
      <trkpt lat="42.85674" lon="2.19841">
        <ele>222.152</ele>
        <time>2011-01-20T12:42:54Z</time>
      </trkpt>
      <trkpt lat="42.85668" lon="2.19837">
        <ele>220.71</ele>
        <time>2011-01-20T12:42:56Z</time>
      </trkpt>
      <trkpt lat="42.85662" lon="2.19843">
        <ele>218.183</ele>
        <time>2011-01-20T12:43:00Z</time>
      </trkpt>
      <trkpt lat="42.85662" lon="2.19846">
        <ele>218.175</ele>
        <time>2011-01-20T12:43:01Z</time>
      </trkpt>
      <trkpt lat="42.85661" lon="2.19869">
        <ele>219.809</ele>
        <time>2011-01-20T12:43:08Z</time>
      </trkpt>
      <trkpt lat="42.85658" lon="2.19895">
        <ele>219.878</ele>
        <time>2011-01-20T12:43:14Z</time>
      </trkpt>
      <trkpt lat="42.85658" lon="2.19901">
        <ele>219.742</ele>
        <time>2011-01-20T12:43:15Z</time>
      </trkpt>
      <trkpt lat="42.85653" lon="2.1993">
        <ele>218.063</ele>
        <time>2011-01-20T12:43:19Z</time>
      </trkpt>
      <trkpt lat="42.85652" lon="2.19946">
        <ele>217.347</ele>
        <time>2011-01-20T12:43:21Z</time>
      </trkpt>
      <trkpt lat="42.85641" lon="2.19996">
        <ele>215.254</ele>
        <time>2011-01-20T12:43:27Z</time>
      </trkpt>
      <trkpt lat="42.85623" lon="2.20035">
        <ele>212.932</ele>
        <time>2011-01-20T12:43:32Z</time>
      </trkpt>
      <trkpt lat="42.8561" lon="2.20064">
        <ele>211.382</ele>
        <time>2011-01-20T12:43:36Z</time>
      </trkpt>
      <trkpt lat="42.85585" lon="2.20099">
        <ele>209.3</ele>
        <time>2011-01-20T12:43:42Z</time>
      </trkpt>
      <trkpt lat="42.8558" lon="2.20101">
        <ele>209.156</ele>
        <time>2011-01-20T12:43:43Z</time>
      </trkpt>
      <trkpt lat="42.85534" lon="2.20107">
        <ele>208.295</ele>
        <time>2011-01-20T12:43:52Z</time>
      </trkpt>
      <trkpt lat="42.85497" lon="2.2011">
        <ele>207.459</ele>
        <time>2011-01-20T12:43:59Z</time>
      </trkpt>
      <trkpt lat="42.85468" lon="2.20115">
        <ele>206.591</ele>
        <time>2011-01-20T12:44:05Z</time>
      </trkpt>
      <trkpt lat="42.85442" lon="2.20121">
        <ele>206.933</ele>
        <time>2011-01-20T12:44:11Z</time>
      </trkpt>
      <trkpt lat="42.85429" lon="2.20138">
        <ele>206.992</ele>
        <time>2011-01-20T12:44:15Z</time>
      </trkpt>
      <trkpt lat="42.85429" lon="2.20147">
        <ele>207.347</ele>
        <time>2011-01-20T12:44:17Z</time>
      </trkpt>
      <trkpt lat="42.85432" lon="2.20159">
        <ele>208.337</ele>
        <time>2011-01-20T12:44:20Z</time>
      </trkpt>
      <trkpt lat="42.85418" lon="2.20165">
        <ele>208.887</ele>
        <time>2011-01-20T12:44:25Z</time>
      </trkpt>
      <trkpt lat="42.85414" lon="2.20172">
        <ele>208.872</ele>
        <time>2011-01-20T12:44:28Z</time>
      </trkpt>
      <trkpt lat="42.85408" lon="2.20174">
        <ele>208.983</ele>
        <time>2011-01-20T12:44:32Z</time>
      </trkpt>
      <trkpt lat="42.85395" lon="2.20164">
        <ele>208.694</ele>
        <time>2011-01-20T12:44:37Z</time>
      </trkpt>
      <trkpt lat="42.85394" lon="2.20163">
        <ele>207.907</ele>
        <time>2011-01-20T12:44:41Z</time>
      </trkpt>
      <trkpt lat="42.85391" lon="2.2016">
        <ele>207.296</ele>
        <time>2011-01-20T12:46:31Z</time>
      </trkpt>
      <trkpt lat="42.85391" lon="2.20147">
        <ele>207.034</ele>
        <time>2011-01-20T12:46:36Z</time>
      </trkpt>
      <trkpt lat="42.85387" lon="2.20132">
        <ele>208.276</ele>
        <time>2011-01-20T12:46:41Z</time>
      </trkpt>
      <trkpt lat="42.85378" lon="2.20109">
        <ele>209.701</ele>
        <time>2011-01-20T12:46:49Z</time>
      </trkpt>
      <trkpt lat="42.85375" lon="2.20099">
        <ele>209.146</ele>
        <time>2011-01-20T12:46:53Z</time>
      </trkpt>
      <trkpt lat="42.85373" lon="2.20094">
        <ele>209.317</ele>
        <time>2011-01-20T12:46:55Z</time>
      </trkpt>
      <trkpt lat="42.85377" lon="2.20088">
        <ele>209.905</ele>
        <time>2011-01-20T12:46:59Z</time>
      </trkpt>
      <trkpt lat="42.85391" lon="2.20084">
        <ele>210.047</ele>
        <time>2011-01-20T12:47:05Z</time>
      </trkpt>
      <trkpt lat="42.85401" lon="2.20073">
        <ele>210.531</ele>
        <time>2011-01-20T12:47:10Z</time>
      </trkpt>
      <trkpt lat="42.85411" lon="2.20053">
        <ele>211.343</ele>
        <time>2011-01-20T12:47:17Z</time>
      </trkpt>
      <trkpt lat="42.85422" lon="2.20032">
        <ele>212.448</ele>
        <time>2011-01-20T12:47:24Z</time>
      </trkpt>
      <trkpt lat="42.85444" lon="2.19997">
        <ele>211.722</ele>
        <time>2011-01-20T12:47:34Z</time>
      </trkpt>
      <trkpt lat="42.85453" lon="2.19972">
        <ele>211.311</ele>
        <time>2011-01-20T12:47:40Z</time>
      </trkpt>
      <trkpt lat="42.85461" lon="2.19944">
        <ele>210.83</ele>
        <time>2011-01-20T12:47:47Z</time>
      </trkpt>
      <trkpt lat="42.85469" lon="2.19913">
        <ele>210.793</ele>
        <time>2011-01-20T12:47:54Z</time>
      </trkpt>
      <trkpt lat="42.85471" lon="2.19897">
        <ele>210.934</ele>
        <time>2011-01-20T12:47:58Z</time>
      </trkpt>
      <trkpt lat="42.85464" lon="2.19885">
        <ele>210.763</ele>
        <time>2011-01-20T12:48:02Z</time>
      </trkpt>
      <trkpt lat="42.85441" lon="2.19869">
        <ele>211.137</ele>
        <time>2011-01-20T12:48:11Z</time>
      </trkpt>
      <trkpt lat="42.85423" lon="2.19856">
        <ele>213.479</ele>
        <time>2011-01-20T12:48:19Z</time>
      </trkpt>
      <trkpt lat="42.85405" lon="2.19846">
        <ele>215.611</ele>
        <time>2011-01-20T12:48:27Z</time>
      </trkpt>
      <trkpt lat="42.8539" lon="2.19837">
        <ele>217.089</ele>
        <time>2011-01-20T12:48:35Z</time>
      </trkpt>
      <trkpt lat="42.85382" lon="2.19827">
        <ele>218.925</ele>
        <time>2011-01-20T12:48:41Z</time>
      </trkpt>
      <trkpt lat="42.85379" lon="2.19825">
        <ele>219.577</ele>
        <time>2011-01-20T12:48:43Z</time>
      </trkpt>
      <trkpt lat="42.85376" lon="2.19834">
        <ele>220.537</ele>
        <time>2011-01-20T12:48:47Z</time>
      </trkpt>
      <trkpt lat="42.85378" lon="2.19865">
        <ele>221.274</ele>
        <time>2011-01-20T12:48:56Z</time>
      </trkpt>
      <trkpt lat="42.85378" lon="2.19895">
        <ele>222.495</ele>
        <time>2011-01-20T12:49:05Z</time>
      </trkpt>
      <trkpt lat="42.85378" lon="2.19922">
        <ele>223.967</ele>
        <time>2011-01-20T12:49:14Z</time>
      </trkpt>
      <trkpt lat="42.85375" lon="2.19944">
        <ele>225.683</ele>
        <time>2011-01-20T12:49:22Z</time>
      </trkpt>
      <trkpt lat="42.85366" lon="2.19948">
        <ele>226.965</ele>
        <time>2011-01-20T12:49:27Z</time>
      </trkpt>
      <trkpt lat="42.85351" lon="2.19947">
        <ele>229.232</ele>
        <time>2011-01-20T12:49:34Z</time>
      </trkpt>
      <trkpt lat="42.85325" lon="2.19948">
        <ele>232.48</ele>
        <time>2011-01-20T12:49:45Z</time>
      </trkpt>
      <trkpt lat="42.85303" lon="2.19952">
        <ele>234.73</ele>
        <time>2011-01-20T12:49:55Z</time>
      </trkpt>
      <trkpt lat="42.85288" lon="2.19957">
        <ele>236.356</ele>
        <time>2011-01-20T12:50:02Z</time>
      </trkpt>
      <trkpt lat="42.8527" lon="2.19959">
        <ele>239.006</ele>
        <time>2011-01-20T12:50:09Z</time>
      </trkpt>
      <trkpt lat="42.85249" lon="2.19958">
        <ele>240.367</ele>
        <time>2011-01-20T12:50:17Z</time>
      </trkpt>
      <trkpt lat="42.85234" lon="2.19943">
        <ele>240.609</ele>
        <time>2011-01-20T12:50:24Z</time>
      </trkpt>
      <trkpt lat="42.85215" lon="2.19923">
        <ele>240.558</ele>
        <time>2011-01-20T12:50:33Z</time>
      </trkpt>
      <trkpt lat="42.852" lon="2.1991">
        <ele>241.158</ele>
        <time>2011-01-20T12:50:41Z</time>
      </trkpt>
      <trkpt lat="42.85187" lon="2.19899">
        <ele>244.285</ele>
        <time>2011-01-20T12:50:49Z</time>
      </trkpt>
      <trkpt lat="42.85176" lon="2.19896">
        <ele>246.318</ele>
        <time>2011-01-20T12:50:55Z</time>
      </trkpt>
      <trkpt lat="42.85162" lon="2.19895">
        <ele>247.422</ele>
        <time>2011-01-20T12:51:01Z</time>
      </trkpt>
      <trkpt lat="42.85142" lon="2.19893">
        <ele>249.261</ele>
        <time>2011-01-20T12:51:10Z</time>
      </trkpt>
      <trkpt lat="42.85121" lon="2.19891">
        <ele>250.21</ele>
        <time>2011-01-20T12:51:20Z</time>
      </trkpt>
      <trkpt lat="42.85109" lon="2.1989">
        <ele>250.652</ele>
        <time>2011-01-20T12:51:26Z</time>
      </trkpt>
      <trkpt lat="42.85104" lon="2.19881">
        <ele>251.393</ele>
        <time>2011-01-20T12:51:31Z</time>
      </trkpt>
      <trkpt lat="42.85093" lon="2.19865">
        <ele>252.956</ele>
        <time>2011-01-20T12:51:39Z</time>
      </trkpt>
      <trkpt lat="42.85083" lon="2.19845">
        <ele>255.188</ele>
        <time>2011-01-20T12:51:48Z</time>
      </trkpt>
      <trkpt lat="42.85077" lon="2.19828">
        <ele>256.471</ele>
        <time>2011-01-20T12:51:55Z</time>
      </trkpt>
      <trkpt lat="42.8507" lon="2.19813">
        <ele>258.431</ele>
        <time>2011-01-20T12:52:02Z</time>
      </trkpt>
      <trkpt lat="42.85064" lon="2.19802">
        <ele>260.038</ele>
        <time>2011-01-20T12:52:07Z</time>
      </trkpt>
      <trkpt lat="42.85057" lon="2.19799">
        <ele>261.307</ele>
        <time>2011-01-20T12:52:11Z</time>
      </trkpt>
      <trkpt lat="42.85047" lon="2.19798">
        <ele>262.45</ele>
        <time>2011-01-20T12:52:16Z</time>
      </trkpt>
      <trkpt lat="42.85032" lon="2.19803">
        <ele>264.355</ele>
        <time>2011-01-20T12:52:23Z</time>
      </trkpt>
      <trkpt lat="42.85029" lon="2.19803">
        <ele>265.027</ele>
        <time>2011-01-20T12:52:25Z</time>
      </trkpt>
      <trkpt lat="42.85026" lon="2.19792">
        <ele>266.355</ele>
        <time>2011-01-20T12:52:30Z</time>
      </trkpt>
      <trkpt lat="42.85033" lon="2.19792">
        <ele>266.969</ele>
        <time>2011-01-20T12:52:34Z</time>
      </trkpt>
      <trkpt lat="42.85035" lon="2.19788">
        <ele>267.086</ele>
        <time>2011-01-20T12:52:37Z</time>
      </trkpt>
      <trkpt lat="42.85031" lon="2.19787">
        <ele>267.253</ele>
        <time>2011-01-20T12:52:40Z</time>
      </trkpt>
      <trkpt lat="42.85027" lon="2.19792">
        <ele>266.996</ele>
        <time>2011-01-20T12:52:43Z</time>
      </trkpt>
      <trkpt lat="42.85024" lon="2.19787">
        <ele>266.949</ele>
        <time>2011-01-20T12:52:47Z</time>
      </trkpt>
      <trkpt lat="42.85028" lon="2.19776">
        <ele>269.2</ele>
        <time>2011-01-20T12:52:52Z</time>
      </trkpt>
      <trkpt lat="42.85021" lon="2.19771">
        <ele>271.65</ele>
        <time>2011-01-20T12:52:57Z</time>
      </trkpt>
      <trkpt lat="42.85011" lon="2.19775">
        <ele>274.089</ele>
        <time>2011-01-20T12:53:03Z</time>
      </trkpt>
      <trkpt lat="42.8501" lon="2.19776">
        <ele>274.562</ele>
        <time>2011-01-20T12:53:04Z</time>
      </trkpt>
      <trkpt lat="42.85" lon="2.19784">
        <ele>276.04</ele>
        <time>2011-01-20T12:53:11Z</time>
      </trkpt>
      <trkpt lat="42.84993" lon="2.19794">
        <ele>277.832</ele>
        <time>2011-01-20T12:53:17Z</time>
      </trkpt>
      <trkpt lat="42.84986" lon="2.19798">
        <ele>278.971</ele>
        <time>2011-01-20T12:53:23Z</time>
      </trkpt>
      <trkpt lat="42.8498" lon="2.19805">
        <ele>280.237</ele>
        <time>2011-01-20T12:53:29Z</time>
      </trkpt>
      <trkpt lat="42.84972" lon="2.19814">
        <ele>281.711</ele>
        <time>2011-01-20T12:53:37Z</time>
      </trkpt>
      <trkpt lat="42.84964" lon="2.19823">
        <ele>283.783</ele>
        <time>2011-01-20T12:53:45Z</time>
      </trkpt>
      <trkpt lat="42.8496" lon="2.19829">
        <ele>284.909</ele>
        <time>2011-01-20T12:53:49Z</time>
      </trkpt>
      <trkpt lat="42.84951" lon="2.19836">
        <ele>288.442</ele>
        <time>2011-01-20T12:53:58Z</time>
      </trkpt>
      <trkpt lat="42.84948" lon="2.19839">
        <ele>289.014</ele>
        <time>2011-01-20T12:54:01Z</time>
      </trkpt>
      <trkpt lat="42.8494" lon="2.19855">
        <ele>290.563</ele>
        <time>2011-01-20T12:54:11Z</time>
      </trkpt>
      <trkpt lat="42.84934" lon="2.19863">
        <ele>291.738</ele>
        <time>2011-01-20T12:54:18Z</time>
      </trkpt>
      <trkpt lat="42.84925" lon="2.1987">
        <ele>294.029</ele>
        <time>2011-01-20T12:54:27Z</time>
      </trkpt>
      <trkpt lat="42.84916" lon="2.19877">
        <ele>296.062</ele>
        <time>2011-01-20T12:54:35Z</time>
      </trkpt>
      <trkpt lat="42.84907" lon="2.19888">
        <ele>298.578</ele>
        <time>2011-01-20T12:54:45Z</time>
      </trkpt>
      <trkpt lat="42.84899" lon="2.19897">
        <ele>300.101</ele>
        <time>2011-01-20T12:54:52Z</time>
      </trkpt>
      <trkpt lat="42.8489" lon="2.19906">
        <ele>301.036</ele>
        <time>2011-01-20T12:55:00Z</time>
      </trkpt>
      <trkpt lat="42.84885" lon="2.1991">
        <ele>301.047</ele>
        <time>2011-01-20T12:55:03Z</time>
      </trkpt>
      <trkpt lat="42.84878" lon="2.19903">
        <ele>300.39</ele>
        <time>2011-01-20T12:55:07Z</time>
      </trkpt>
      <trkpt lat="42.84874" lon="2.19884">
        <ele>298.535</ele>
        <time>2011-01-20T12:55:12Z</time>
      </trkpt>
      <trkpt lat="42.84868" lon="2.19863">
        <ele>296.907</ele>
        <time>2011-01-20T12:55:16Z</time>
      </trkpt>
      <trkpt lat="42.8486" lon="2.19862">
        <ele>294.956</ele>
        <time>2011-01-20T12:55:19Z</time>
      </trkpt>
      <trkpt lat="42.84846" lon="2.19869">
        <ele>295.295</ele>
        <time>2011-01-20T12:55:27Z</time>
      </trkpt>
      <trkpt lat="42.84835" lon="2.19862">
        <ele>296.541</ele>
        <time>2011-01-20T12:55:33Z</time>
      </trkpt>
      <trkpt lat="42.84826" lon="2.19853">
        <ele>296.167</ele>
        <time>2011-01-20T12:55:37Z</time>
      </trkpt>
      <trkpt lat="42.84815" lon="2.19859">
        <ele>295.799</ele>
        <time>2011-01-20T12:55:41Z</time>
      </trkpt>
      <trkpt lat="42.84805" lon="2.19862">
        <ele>295.785</ele>
        <time>2011-01-20T12:55:46Z</time>
      </trkpt>
      <trkpt lat="42.8479" lon="2.19853">
        <ele>296.114</ele>
        <time>2011-01-20T12:55:53Z</time>
      </trkpt>
      <trkpt lat="42.84775" lon="2.1984">
        <ele>296.531</ele>
        <time>2011-01-20T12:56:00Z</time>
      </trkpt>
      <trkpt lat="42.84769" lon="2.19824">
        <ele>297.599</ele>
        <time>2011-01-20T12:56:07Z</time>
      </trkpt>
      <trkpt lat="42.84765" lon="2.1981">
        <ele>300.889</ele>
        <time>2011-01-20T12:56:14Z</time>
      </trkpt>
      <trkpt lat="42.84754" lon="2.19805">
        <ele>301.412</ele>
        <time>2011-01-20T12:56:20Z</time>
      </trkpt>
      <trkpt lat="42.84751" lon="2.19805">
        <ele>301.359</ele>
        <time>2011-01-20T12:56:21Z</time>
      </trkpt>
      <trkpt lat="42.84741" lon="2.19814">
        <ele>302.104</ele>
        <time>2011-01-20T12:56:27Z</time>
      </trkpt>
      <trkpt lat="42.8474" lon="2.19815">
        <ele>302</ele>
        <time>2011-01-20T12:56:28Z</time>
      </trkpt>
      <trkpt lat="42.84742" lon="2.19831">
        <ele>300.627</ele>
        <time>2011-01-20T12:56:33Z</time>
      </trkpt>
      <trkpt lat="42.84748" lon="2.19852">
        <ele>297.666</ele>
        <time>2011-01-20T12:56:38Z</time>
      </trkpt>
      <trkpt lat="42.84746" lon="2.19866">
        <ele>297.359</ele>
        <time>2011-01-20T12:56:43Z</time>
      </trkpt>
      <trkpt lat="42.84745" lon="2.19883">
        <ele>299.347</ele>
        <time>2011-01-20T12:56:50Z</time>
      </trkpt>
      <trkpt lat="42.84742" lon="2.19899">
        <ele>301.486</ele>
        <time>2011-01-20T12:56:57Z</time>
      </trkpt>
      <trkpt lat="42.84742" lon="2.19903">
        <ele>302.266</ele>
        <time>2011-01-20T12:56:59Z</time>
      </trkpt>
      <trkpt lat="42.8473" lon="2.19916">
        <ele>304.041</ele>
        <time>2011-01-20T12:57:07Z</time>
      </trkpt>
      <trkpt lat="42.84718" lon="2.19919">
        <ele>305.177</ele>
        <time>2011-01-20T12:57:14Z</time>
      </trkpt>
      <trkpt lat="42.84707" lon="2.19924">
        <ele>307.245</ele>
        <time>2011-01-20T12:57:21Z</time>
      </trkpt>
      <trkpt lat="42.84696" lon="2.19931">
        <ele>308.765</ele>
        <time>2011-01-20T12:57:29Z</time>
      </trkpt>
      <trkpt lat="42.84687" lon="2.19939">
        <ele>311.295</ele>
        <time>2011-01-20T12:57:36Z</time>
      </trkpt>
      <trkpt lat="42.84678" lon="2.19943">
        <ele>313.414</ele>
        <time>2011-01-20T12:57:42Z</time>
      </trkpt>
      <trkpt lat="42.84668" lon="2.19948">
        <ele>315.194</ele>
        <time>2011-01-20T12:57:49Z</time>
      </trkpt>
      <trkpt lat="42.84655" lon="2.19946">
        <ele>317.206</ele>
        <time>2011-01-20T12:57:57Z</time>
      </trkpt>
      <trkpt lat="42.84643" lon="2.19939">
        <ele>316.967</ele>
        <time>2011-01-20T12:58:03Z</time>
      </trkpt>
      <trkpt lat="42.84631" lon="2.19927">
        <ele>316.518</ele>
        <time>2011-01-20T12:58:09Z</time>
      </trkpt>
      <trkpt lat="42.84623" lon="2.19916">
        <ele>316.511</ele>
        <time>2011-01-20T12:58:14Z</time>
      </trkpt>
      <trkpt lat="42.84618" lon="2.19906">
        <ele>316.373</ele>
        <time>2011-01-20T12:58:18Z</time>
      </trkpt>
      <trkpt lat="42.84609" lon="2.19902">
        <ele>316.089</ele>
        <time>2011-01-20T12:58:22Z</time>
      </trkpt>
      <trkpt lat="42.84598" lon="2.19898">
        <ele>315.948</ele>
        <time>2011-01-20T12:58:27Z</time>
      </trkpt>
      <trkpt lat="42.8459" lon="2.19902">
        <ele>316.146</ele>
        <time>2011-01-20T12:58:31Z</time>
      </trkpt>
      <trkpt lat="42.84587" lon="2.19909">
        <ele>316.41</ele>
        <time>2011-01-20T12:58:33Z</time>
      </trkpt>
      <trkpt lat="42.84576" lon="2.1993">
        <ele>316.312</ele>
        <time>2011-01-20T12:58:40Z</time>
      </trkpt>
      <trkpt lat="42.84569" lon="2.19942">
        <ele>316.48</ele>
        <time>2011-01-20T12:58:45Z</time>
      </trkpt>
      <trkpt lat="42.84557" lon="2.19958">
        <ele>316.928</ele>
        <time>2011-01-20T12:58:52Z</time>
      </trkpt>
      <trkpt lat="42.84547" lon="2.19967">
        <ele>317.744</ele>
        <time>2011-01-20T12:58:58Z</time>
      </trkpt>
      <trkpt lat="42.84537" lon="2.19978">
        <ele>318.819</ele>
        <time>2011-01-20T12:59:05Z</time>
      </trkpt>
      <trkpt lat="42.8453" lon="2.19984">
        <ele>319.484</ele>
        <time>2011-01-20T12:59:10Z</time>
      </trkpt>
      <trkpt lat="42.84524" lon="2.19989">
        <ele>320.651</ele>
        <time>2011-01-20T12:59:14Z</time>
      </trkpt>
      <trkpt lat="42.84513" lon="2.19999">
        <ele>322.476</ele>
        <time>2011-01-20T12:59:21Z</time>
      </trkpt>
      <trkpt lat="42.84505" lon="2.20007">
        <ele>324.785</ele>
        <time>2011-01-20T12:59:27Z</time>
      </trkpt>
      <trkpt lat="42.84501" lon="2.20011">
        <ele>325.374</ele>
        <time>2011-01-20T12:59:30Z</time>
      </trkpt>
      <trkpt lat="42.84492" lon="2.20013">
        <ele>326.851</ele>
        <time>2011-01-20T12:59:36Z</time>
      </trkpt>
      <trkpt lat="42.8448" lon="2.20005">
        <ele>328.829</ele>
        <time>2011-01-20T12:59:44Z</time>
      </trkpt>
      <trkpt lat="42.84475" lon="2.2">
        <ele>328.184</ele>
        <time>2011-01-20T12:59:49Z</time>
      </trkpt>
      <trkpt lat="42.84477" lon="2.19999">
        <ele>326.856</ele>
        <time>2011-01-20T13:00:41Z</time>
      </trkpt>
      <trkpt lat="42.84466" lon="2.19998">
        <ele>327.192</ele>
        <time>2011-01-20T13:00:47Z</time>
      </trkpt>
      <trkpt lat="42.84456" lon="2.20001">
        <ele>327.338</ele>
        <time>2011-01-20T13:00:52Z</time>
      </trkpt>
      <trkpt lat="42.84444" lon="2.20007">
        <ele>326.807</ele>
        <time>2011-01-20T13:00:57Z</time>
      </trkpt>
      <trkpt lat="42.8443" lon="2.20021">
        <ele>326.538</ele>
        <time>2011-01-20T13:01:04Z</time>
      </trkpt>
      <trkpt lat="42.84419" lon="2.20028">
        <ele>326.242</ele>
        <time>2011-01-20T13:01:09Z</time>
      </trkpt>
      <trkpt lat="42.84404" lon="2.20044">
        <ele>327.059</ele>
        <time>2011-01-20T13:01:17Z</time>
      </trkpt>
      <trkpt lat="42.84395" lon="2.20055">
        <ele>327.115</ele>
        <time>2011-01-20T13:01:22Z</time>
      </trkpt>
      <trkpt lat="42.84382" lon="2.20072">
        <ele>326.162</ele>
        <time>2011-01-20T13:01:27Z</time>
      </trkpt>
      <trkpt lat="42.84372" lon="2.2009">
        <ele>325.36</ele>
        <time>2011-01-20T13:01:32Z</time>
      </trkpt>
      <trkpt lat="42.8436" lon="2.20104">
        <ele>323.577</ele>
        <time>2011-01-20T13:01:37Z</time>
      </trkpt>
      <trkpt lat="42.84349" lon="2.20117">
        <ele>321.833</ele>
        <time>2011-01-20T13:01:41Z</time>
      </trkpt>
      <trkpt lat="42.84338" lon="2.20127">
        <ele>322.039</ele>
        <time>2011-01-20T13:01:46Z</time>
      </trkpt>
      <trkpt lat="42.84334" lon="2.2013">
        <ele>322.985</ele>
        <time>2011-01-20T13:01:48Z</time>
      </trkpt>
      <trkpt lat="42.84326" lon="2.20145">
        <ele>324.92</ele>
        <time>2011-01-20T13:01:54Z</time>
      </trkpt>
      <trkpt lat="42.84318" lon="2.20166">
        <ele>327.524</ele>
        <time>2011-01-20T13:02:02Z</time>
      </trkpt>
      <trkpt lat="42.84309" lon="2.20169">
        <ele>328.831</ele>
        <time>2011-01-20T13:02:07Z</time>
      </trkpt>
      <trkpt lat="42.84299" lon="2.2017">
        <ele>329.664</ele>
        <time>2011-01-20T13:02:12Z</time>
      </trkpt>
      <trkpt lat="42.8429" lon="2.2017">
        <ele>329.968</ele>
        <time>2011-01-20T13:02:17Z</time>
      </trkpt>
      <trkpt lat="42.84279" lon="2.20167">
        <ele>331.915</ele>
        <time>2011-01-20T13:02:23Z</time>
      </trkpt>
      <trkpt lat="42.84277" lon="2.20166">
        <ele>332.308</ele>
        <time>2011-01-20T13:02:25Z</time>
      </trkpt>
      <trkpt lat="42.84276" lon="2.20164">
        <ele>333.223</ele>
        <time>2011-01-20T13:02:31Z</time>
      </trkpt>
      <trkpt lat="42.84276" lon="2.20165">
        <ele>333.546</ele>
        <time>2011-01-20T13:02:39Z</time>
      </trkpt>
      <trkpt lat="42.84275" lon="2.20164">
        <ele>333.726</ele>
        <time>2011-01-20T13:02:44Z</time>
      </trkpt>
      <trkpt lat="42.84276" lon="2.20166">
        <ele>333.108</ele>
        <time>2011-01-20T13:04:35Z</time>
      </trkpt>
      <trkpt lat="42.84282" lon="2.2017">
        <ele>332.323</ele>
        <time>2011-01-20T13:04:39Z</time>
      </trkpt>
      <trkpt lat="42.84296" lon="2.20171">
        <ele>329.604</ele>
        <time>2011-01-20T13:04:45Z</time>
      </trkpt>
      <trkpt lat="42.84308" lon="2.20168">
        <ele>328.969</ele>
        <time>2011-01-20T13:04:51Z</time>
      </trkpt>
      <trkpt lat="42.8432" lon="2.20161">
        <ele>328.093</ele>
        <time>2011-01-20T13:04:56Z</time>
      </trkpt>
      <trkpt lat="42.84326" lon="2.20146">
        <ele>326.825</ele>
        <time>2011-01-20T13:05:00Z</time>
      </trkpt>
      <trkpt lat="42.84336" lon="2.20126">
        <ele>323.291</ele>
        <time>2011-01-20T13:05:06Z</time>
      </trkpt>
      <trkpt lat="42.84352" lon="2.20109">
        <ele>320.063</ele>
        <time>2011-01-20T13:05:12Z</time>
      </trkpt>
      <trkpt lat="42.84361" lon="2.201">
        <ele>320.712</ele>
        <time>2011-01-20T13:05:17Z</time>
      </trkpt>
      <trkpt lat="42.84369" lon="2.2009">
        <ele>321.677</ele>
        <time>2011-01-20T13:05:22Z</time>
      </trkpt>
      <trkpt lat="42.84377" lon="2.20075">
        <ele>323.912</ele>
        <time>2011-01-20T13:05:29Z</time>
      </trkpt>
      <trkpt lat="42.84391" lon="2.20059">
        <ele>324.846</ele>
        <time>2011-01-20T13:05:37Z</time>
      </trkpt>
      <trkpt lat="42.844" lon="2.20049">
        <ele>325.645</ele>
        <time>2011-01-20T13:05:43Z</time>
      </trkpt>
      <trkpt lat="42.84413" lon="2.20035">
        <ele>325.883</ele>
        <time>2011-01-20T13:05:50Z</time>
      </trkpt>
      <trkpt lat="42.84426" lon="2.20024">
        <ele>325.449</ele>
        <time>2011-01-20T13:05:56Z</time>
      </trkpt>
      <trkpt lat="42.84435" lon="2.20015">
        <ele>325.226</ele>
        <time>2011-01-20T13:06:01Z</time>
      </trkpt>
      <trkpt lat="42.84449" lon="2.20009">
        <ele>325.394</ele>
        <time>2011-01-20T13:06:07Z</time>
      </trkpt>
      <trkpt lat="42.84466" lon="2.20004">
        <ele>325.912</ele>
        <time>2011-01-20T13:06:15Z</time>
      </trkpt>
      <trkpt lat="42.84476" lon="2.20005">
        <ele>325.529</ele>
        <time>2011-01-20T13:06:20Z</time>
      </trkpt>
      <trkpt lat="42.84477" lon="2.20003">
        <ele>325.814</ele>
        <time>2011-01-20T13:06:25Z</time>
      </trkpt>
      <trkpt lat="42.84476" lon="2.20001">
        <ele>326.451</ele>
        <time>2011-01-20T13:06:33Z</time>
      </trkpt>
      <trkpt lat="42.84468" lon="2.19997">
        <ele>327.026</ele>
        <time>2011-01-20T13:06:40Z</time>
      </trkpt>
      <trkpt lat="42.84461" lon="2.19995">
        <ele>328.054</ele>
        <time>2011-01-20T13:06:44Z</time>
      </trkpt>
      <trkpt lat="42.84454" lon="2.19994">
        <ele>330.126</ele>
        <time>2011-01-20T13:06:49Z</time>
      </trkpt>
      <trkpt lat="42.8445" lon="2.19995">
        <ele>330.893</ele>
        <time>2011-01-20T13:06:55Z</time>
      </trkpt>
      <trkpt lat="42.84449" lon="2.19994">
        <ele>331.831</ele>
        <time>2011-01-20T13:06:59Z</time>
      </trkpt>
      <trkpt lat="42.84452" lon="2.1999">
        <ele>332.808</ele>
        <time>2011-01-20T13:07:08Z</time>
      </trkpt>
      <trkpt lat="42.84454" lon="2.19988">
        <ele>333.349</ele>
        <time>2011-01-20T13:07:18Z</time>
      </trkpt>
      <trkpt lat="42.84456" lon="2.19985">
        <ele>333.647</ele>
        <time>2011-01-20T13:07:23Z</time>
      </trkpt>
      <trkpt lat="42.8446" lon="2.19981">
        <ele>334.674</ele>
        <time>2011-01-20T13:07:28Z</time>
      </trkpt>
      <trkpt lat="42.84466" lon="2.1998">
        <ele>336.345</ele>
        <time>2011-01-20T13:07:36Z</time>
      </trkpt>
      <trkpt lat="42.8447" lon="2.1998">
        <ele>337.173</ele>
        <time>2011-01-20T13:07:42Z</time>
      </trkpt>
      <trkpt lat="42.84478" lon="2.19978">
        <ele>337.864</ele>
        <time>2011-01-20T13:07:47Z</time>
      </trkpt>
      <trkpt lat="42.84483" lon="2.19976">
        <ele>339.423</ele>
        <time>2011-01-20T13:07:52Z</time>
      </trkpt>
      <trkpt lat="42.8449" lon="2.19976">
        <ele>340.257</ele>
        <time>2011-01-20T13:07:58Z</time>
      </trkpt>
      <trkpt lat="42.84494" lon="2.19971">
        <ele>340.668</ele>
        <time>2011-01-20T13:08:04Z</time>
      </trkpt>
      <trkpt lat="42.84495" lon="2.19969">
        <ele>341.803</ele>
        <time>2011-01-20T13:08:12Z</time>
      </trkpt>
      <trkpt lat="42.84495" lon="2.19968">
        <ele>341.917</ele>
        <time>2011-01-20T13:08:13Z</time>
      </trkpt>
      <trkpt lat="42.84498" lon="2.19961">
        <ele>342.425</ele>
        <time>2011-01-20T13:08:19Z</time>
      </trkpt>
      <trkpt lat="42.84499" lon="2.19956">
        <ele>342.995</ele>
        <time>2011-01-20T13:08:24Z</time>
      </trkpt>
      <trkpt lat="42.84502" lon="2.19949">
        <ele>344.92</ele>
        <time>2011-01-20T13:08:31Z</time>
      </trkpt>
      <trkpt lat="42.84504" lon="2.19944">
        <ele>346.181</ele>
        <time>2011-01-20T13:08:36Z</time>
      </trkpt>
      <trkpt lat="42.84506" lon="2.19941">
        <ele>347.494</ele>
        <time>2011-01-20T13:08:44Z</time>
      </trkpt>
      <trkpt lat="42.84509" lon="2.19934">
        <ele>347.764</ele>
        <time>2011-01-20T13:08:50Z</time>
      </trkpt>
      <trkpt lat="42.84513" lon="2.19925">
        <ele>349.243</ele>
        <time>2011-01-20T13:08:56Z</time>
      </trkpt>
      <trkpt lat="42.84517" lon="2.1992">
        <ele>350.081</ele>
        <time>2011-01-20T13:09:05Z</time>
      </trkpt>
      <trkpt lat="42.8452" lon="2.19918">
        <ele>351.19</ele>
        <time>2011-01-20T13:09:12Z</time>
      </trkpt>
      <trkpt lat="42.84524" lon="2.19906">
        <ele>353.007</ele>
        <time>2011-01-20T13:09:20Z</time>
      </trkpt>
      <trkpt lat="42.84524" lon="2.19904">
        <ele>354.231</ele>
        <time>2011-01-20T13:09:22Z</time>
      </trkpt>
      <trkpt lat="42.84525" lon="2.19895">
        <ele>357.175</ele>
        <time>2011-01-20T13:09:28Z</time>
      </trkpt>
      <trkpt lat="42.84527" lon="2.19889">
        <ele>357.751</ele>
        <time>2011-01-20T13:09:34Z</time>
      </trkpt>
      <trkpt lat="42.84527" lon="2.19882">
        <ele>358.988</ele>
        <time>2011-01-20T13:09:41Z</time>
      </trkpt>
      <trkpt lat="42.84527" lon="2.19879">
        <ele>360.499</ele>
        <time>2011-01-20T13:09:46Z</time>
      </trkpt>
      <trkpt lat="42.84526" lon="2.19875">
        <ele>361.065</ele>
        <time>2011-01-20T13:09:51Z</time>
      </trkpt>
      <trkpt lat="42.84526" lon="2.19875">
        <ele>361.145</ele>
        <time>2011-01-20T13:09:55Z</time>
      </trkpt>
      <trkpt lat="42.8453" lon="2.19861">
        <ele>363.219</ele>
        <time>2011-01-20T13:10:03Z</time>
      </trkpt>
      <trkpt lat="42.84531" lon="2.19851">
        <ele>363.841</ele>
        <time>2011-01-20T13:10:08Z</time>
      </trkpt>
      <trkpt lat="42.84533" lon="2.19839">
        <ele>366.538</ele>
        <time>2011-01-20T13:10:14Z</time>
      </trkpt>
      <trkpt lat="42.84535" lon="2.19831">
        <ele>367.33</ele>
        <time>2011-01-20T13:10:19Z</time>
      </trkpt>
      <trkpt lat="42.84536" lon="2.19817">
        <ele>369.006</ele>
        <time>2011-01-20T13:10:26Z</time>
      </trkpt>
      <trkpt lat="42.84539" lon="2.19807">
        <ele>370.572</ele>
        <time>2011-01-20T13:10:33Z</time>
      </trkpt>
      <trkpt lat="42.84541" lon="2.19801">
        <ele>371.52</ele>
        <time>2011-01-20T13:10:38Z</time>
      </trkpt>
      <trkpt lat="42.84544" lon="2.19795">
        <ele>372.537</ele>
        <time>2011-01-20T13:10:44Z</time>
      </trkpt>
      <trkpt lat="42.84544" lon="2.19792">
        <ele>373.86</ele>
        <time>2011-01-20T13:10:49Z</time>
      </trkpt>
      <trkpt lat="42.84545" lon="2.19785">
        <ele>375.703</ele>
        <time>2011-01-20T13:10:56Z</time>
      </trkpt>
      <trkpt lat="42.84546" lon="2.19779">
        <ele>377.293</ele>
        <time>2011-01-20T13:11:05Z</time>
      </trkpt>
      <trkpt lat="42.84548" lon="2.19773">
        <ele>377.631</ele>
        <time>2011-01-20T13:11:10Z</time>
      </trkpt>
      <trkpt lat="42.8455" lon="2.19759">
        <ele>379.053</ele>
        <time>2011-01-20T13:11:18Z</time>
      </trkpt>
      <trkpt lat="42.84551" lon="2.19753">
        <ele>379.496</ele>
        <time>2011-01-20T13:11:22Z</time>
      </trkpt>
      <trkpt lat="42.84551" lon="2.19748">
        <ele>380.256</ele>
        <time>2011-01-20T13:11:27Z</time>
      </trkpt>
      <trkpt lat="42.8455" lon="2.19744">
        <ele>381.416</ele>
        <time>2011-01-20T13:11:32Z</time>
      </trkpt>
      <trkpt lat="42.8455" lon="2.19741">
        <ele>381.985</ele>
        <time>2011-01-20T13:11:37Z</time>
      </trkpt>
      <trkpt lat="42.8455" lon="2.19734">
        <ele>382.649</ele>
        <time>2011-01-20T13:11:42Z</time>
      </trkpt>
      <trkpt lat="42.84552" lon="2.19724">
        <ele>383.668</ele>
        <time>2011-01-20T13:11:48Z</time>
      </trkpt>
      <trkpt lat="42.84552" lon="2.19718">
        <ele>385.085</ele>
        <time>2011-01-20T13:11:52Z</time>
      </trkpt>
      <trkpt lat="42.84552" lon="2.19712">
        <ele>386.525</ele>
        <time>2011-01-20T13:11:57Z</time>
      </trkpt>
      <trkpt lat="42.84553" lon="2.197">
        <ele>388.701</ele>
        <time>2011-01-20T13:12:05Z</time>
      </trkpt>
      <trkpt lat="42.84553" lon="2.19699">
        <ele>388.923</ele>
        <time>2011-01-20T13:12:06Z</time>
      </trkpt>
      <trkpt lat="42.84558" lon="2.19684">
        <ele>390.273</ele>
        <time>2011-01-20T13:12:15Z</time>
      </trkpt>
      <trkpt lat="42.84559" lon="2.19683">
        <ele>390.47</ele>
        <time>2011-01-20T13:12:16Z</time>
      </trkpt>
      <trkpt lat="42.8456" lon="2.19675">
        <ele>391.065</ele>
        <time>2011-01-20T13:12:22Z</time>
      </trkpt>
      <trkpt lat="42.8456" lon="2.19673">
        <ele>392.708</ele>
        <time>2011-01-20T13:12:29Z</time>
      </trkpt>
      <trkpt lat="42.84558" lon="2.19665">
        <ele>393.129</ele>
        <time>2011-01-20T13:12:36Z</time>
      </trkpt>
      <trkpt lat="42.84558" lon="2.19663">
        <ele>393.159</ele>
        <time>2011-01-20T13:12:37Z</time>
      </trkpt>
      <trkpt lat="42.84556" lon="2.19661">
        <ele>395.191</ele>
        <time>2011-01-20T13:12:43Z</time>
      </trkpt>
      <trkpt lat="42.84553" lon="2.19662">
        <ele>396.905</ele>
        <time>2011-01-20T13:12:49Z</time>
      </trkpt>
      <trkpt lat="42.8455" lon="2.19666">
        <ele>397.438</ele>
        <time>2011-01-20T13:12:55Z</time>
      </trkpt>
      <trkpt lat="42.84549" lon="2.19667">
        <ele>397.414</ele>
        <time>2011-01-20T13:12:56Z</time>
      </trkpt>
      <trkpt lat="42.84546" lon="2.19669">
        <ele>398.714</ele>
        <time>2011-01-20T13:13:04Z</time>
      </trkpt>
      <trkpt lat="42.84546" lon="2.1967">
        <ele>398.763</ele>
        <time>2011-01-20T13:13:05Z</time>
      </trkpt>
      <trkpt lat="42.84537" lon="2.19679">
        <ele>399.706</ele>
        <time>2011-01-20T13:13:13Z</time>
      </trkpt>
      <trkpt lat="42.84532" lon="2.1968">
        <ele>400.315</ele>
        <time>2011-01-20T13:13:15Z</time>
      </trkpt>
      <trkpt lat="42.84525" lon="2.19684">
        <ele>403.218</ele>
        <time>2011-01-20T13:13:21Z</time>
      </trkpt>
      <trkpt lat="42.84519" lon="2.19694">
        <ele>404.577</ele>
        <time>2011-01-20T13:13:28Z</time>
      </trkpt>
      <trkpt lat="42.84513" lon="2.19702">
        <ele>407.069</ele>
        <time>2011-01-20T13:13:36Z</time>
      </trkpt>
      <trkpt lat="42.84512" lon="2.19703">
        <ele>407.441</ele>
        <time>2011-01-20T13:13:37Z</time>
      </trkpt>
      <trkpt lat="42.84507" lon="2.19706">
        <ele>408.846</ele>
        <time>2011-01-20T13:13:40Z</time>
      </trkpt>
      <trkpt lat="42.84504" lon="2.19709">
        <ele>410.101</ele>
        <time>2011-01-20T13:13:43Z</time>
      </trkpt>
      <trkpt lat="42.84502" lon="2.19711">
        <ele>411.691</ele>
        <time>2011-01-20T13:13:46Z</time>
      </trkpt>
      <trkpt lat="42.84498" lon="2.19723">
        <ele>412.831</ele>
        <time>2011-01-20T13:13:54Z</time>
      </trkpt>
      <trkpt lat="42.84498" lon="2.19717">
        <ele>414.516</ele>
        <time>2011-01-20T13:14:02Z</time>
      </trkpt>
      <trkpt lat="42.84498" lon="2.19714">
        <ele>415.153</ele>
        <time>2011-01-20T13:14:09Z</time>
      </trkpt>
      <trkpt lat="42.84498" lon="2.19713">
        <ele>415.287</ele>
        <time>2011-01-20T13:14:11Z</time>
      </trkpt>
      <trkpt lat="42.84497" lon="2.19706">
        <ele>415.952</ele>
        <time>2011-01-20T13:14:16Z</time>
      </trkpt>
      <trkpt lat="42.84496" lon="2.19695">
        <ele>419.319</ele>
        <time>2011-01-20T13:14:23Z</time>
      </trkpt>
      <trkpt lat="42.84495" lon="2.19685">
        <ele>420.268</ele>
        <time>2011-01-20T13:14:41Z</time>
      </trkpt>
      <trkpt lat="42.84496" lon="2.19676">
        <ele>421.211</ele>
        <time>2011-01-20T13:14:48Z</time>
      </trkpt>
      <trkpt lat="42.84496" lon="2.19665">
        <ele>422.579</ele>
        <time>2011-01-20T13:14:55Z</time>
      </trkpt>
      <trkpt lat="42.84496" lon="2.19655">
        <ele>425.46</ele>
        <time>2011-01-20T13:15:01Z</time>
      </trkpt>
      <trkpt lat="42.84497" lon="2.19651">
        <ele>427.041</ele>
        <time>2011-01-20T13:15:09Z</time>
      </trkpt>
      <trkpt lat="42.84494" lon="2.19644">
        <ele>428.463</ele>
        <time>2011-01-20T13:15:16Z</time>
      </trkpt>
      <trkpt lat="42.84492" lon="2.19638">
        <ele>429.953</ele>
        <time>2011-01-20T13:15:23Z</time>
      </trkpt>
      <trkpt lat="42.84492" lon="2.19626">
        <ele>430.528</ele>
        <time>2011-01-20T13:15:31Z</time>
      </trkpt>
      <trkpt lat="42.84492" lon="2.19617">
        <ele>431.559</ele>
        <time>2011-01-20T13:15:37Z</time>
      </trkpt>
      <trkpt lat="42.8449" lon="2.19609">
        <ele>432.736</ele>
        <time>2011-01-20T13:15:44Z</time>
      </trkpt>
      <trkpt lat="42.84487" lon="2.196">
        <ele>435.775</ele>
        <time>2011-01-20T13:15:54Z</time>
      </trkpt>
      <trkpt lat="42.84488" lon="2.19595">
        <ele>436.523</ele>
        <time>2011-01-20T13:16:00Z</time>
      </trkpt>
      <trkpt lat="42.84488" lon="2.19587">
        <ele>436.66</ele>
        <time>2011-01-20T13:16:07Z</time>
      </trkpt>
      <trkpt lat="42.84488" lon="2.1958">
        <ele>436.88</ele>
        <time>2011-01-20T13:16:11Z</time>
      </trkpt>
      <trkpt lat="42.84482" lon="2.1957">
        <ele>439.515</ele>
        <time>2011-01-20T13:16:18Z</time>
      </trkpt>
      <trkpt lat="42.8448" lon="2.19568">
        <ele>440.158</ele>
        <time>2011-01-20T13:16:20Z</time>
      </trkpt>
      <trkpt lat="42.84476" lon="2.19563">
        <ele>442.239</ele>
        <time>2011-01-20T13:16:28Z</time>
      </trkpt>
      <trkpt lat="42.84474" lon="2.19561">
        <ele>443.644</ele>
        <time>2011-01-20T13:16:33Z</time>
      </trkpt>
      <trkpt lat="42.84473" lon="2.19559">
        <ele>443.991</ele>
        <time>2011-01-20T13:16:40Z</time>
      </trkpt>
      <trkpt lat="42.84467" lon="2.19548">
        <ele>445.362</ele>
        <time>2011-01-20T13:16:47Z</time>
      </trkpt>
      <trkpt lat="42.84466" lon="2.19546">
        <ele>447.579</ele>
        <time>2011-01-20T13:16:52Z</time>
      </trkpt>
      <trkpt lat="42.84463" lon="2.19543">
        <ele>448.71</ele>
        <time>2011-01-20T13:16:59Z</time>
      </trkpt>
      <trkpt lat="42.84462" lon="2.19543">
        <ele>448.79</ele>
        <time>2011-01-20T13:17:00Z</time>
      </trkpt>
      <trkpt lat="42.84456" lon="2.19532">
        <ele>449.682</ele>
        <time>2011-01-20T13:17:07Z</time>
      </trkpt>
      <trkpt lat="42.84454" lon="2.19529">
        <ele>450.595</ele>
        <time>2011-01-20T13:17:11Z</time>
      </trkpt>
      <trkpt lat="42.84453" lon="2.19526">
        <ele>451.603</ele>
        <time>2011-01-20T13:17:17Z</time>
      </trkpt>
      <trkpt lat="42.84454" lon="2.19528">
        <ele>452.448</ele>
        <time>2011-01-20T13:17:23Z</time>
      </trkpt>
      <trkpt lat="42.84456" lon="2.19532">
        <ele>453.291</ele>
        <time>2011-01-20T13:17:29Z</time>
      </trkpt>
      <trkpt lat="42.84454" lon="2.19538">
        <ele>454.336</ele>
        <time>2011-01-20T13:17:37Z</time>
      </trkpt>
      <trkpt lat="42.84452" lon="2.19546">
        <ele>455.739</ele>
        <time>2011-01-20T13:17:45Z</time>
      </trkpt>
      <trkpt lat="42.8445" lon="2.1955">
        <ele>456.992</ele>
        <time>2011-01-20T13:17:52Z</time>
      </trkpt>
      <trkpt lat="42.84449" lon="2.19554">
        <ele>457.113</ele>
        <time>2011-01-20T13:18:02Z</time>
      </trkpt>
      <trkpt lat="42.84448" lon="2.19564">
        <ele>458.489</ele>
        <time>2011-01-20T13:18:10Z</time>
      </trkpt>
      <trkpt lat="42.84445" lon="2.19575">
        <ele>460.699</ele>
        <time>2011-01-20T13:18:17Z</time>
      </trkpt>
      <trkpt lat="42.84441" lon="2.19582">
        <ele>462.956</ele>
        <time>2011-01-20T13:18:24Z</time>
      </trkpt>
      <trkpt lat="42.84439" lon="2.19585">
        <ele>464.2</ele>
        <time>2011-01-20T13:18:31Z</time>
      </trkpt>
      <trkpt lat="42.84436" lon="2.19594">
        <ele>466.457</ele>
        <time>2011-01-20T13:18:42Z</time>
      </trkpt>
      <trkpt lat="42.84435" lon="2.19599">
        <ele>467.294</ele>
        <time>2011-01-20T13:18:48Z</time>
      </trkpt>
      <trkpt lat="42.84431" lon="2.19607">
        <ele>469.479</ele>
        <time>2011-01-20T13:18:57Z</time>
      </trkpt>
      <trkpt lat="42.84428" lon="2.19609">
        <ele>470.446</ele>
        <time>2011-01-20T13:19:04Z</time>
      </trkpt>
      <trkpt lat="42.84429" lon="2.19604">
        <ele>471.21</ele>
        <time>2011-01-20T13:19:12Z</time>
      </trkpt>
      <trkpt lat="42.8443" lon="2.19596">
        <ele>471.684</ele>
        <time>2011-01-20T13:19:18Z</time>
      </trkpt>
      <trkpt lat="42.8443" lon="2.19585">
        <ele>471.897</ele>
        <time>2011-01-20T13:19:24Z</time>
      </trkpt>
      <trkpt lat="42.8443" lon="2.19571">
        <ele>473.262</ele>
        <time>2011-01-20T13:19:31Z</time>
      </trkpt>
      <trkpt lat="42.84427" lon="2.19556">
        <ele>474.044</ele>
        <time>2011-01-20T13:19:38Z</time>
      </trkpt>
      <trkpt lat="42.84424" lon="2.19541">
        <ele>474.45</ele>
        <time>2011-01-20T13:19:45Z</time>
      </trkpt>
      <trkpt lat="42.84418" lon="2.19521">
        <ele>475.898</ele>
        <time>2011-01-20T13:19:54Z</time>
      </trkpt>
      <trkpt lat="42.84408" lon="2.19503">
        <ele>476.704</ele>
        <time>2011-01-20T13:20:03Z</time>
      </trkpt>
      <trkpt lat="42.844" lon="2.19486">
        <ele>476.753</ele>
        <time>2011-01-20T13:20:11Z</time>
      </trkpt>
      <trkpt lat="42.84395" lon="2.1947">
        <ele>476.372</ele>
        <time>2011-01-20T13:20:17Z</time>
      </trkpt>
      <trkpt lat="42.84394" lon="2.19453">
        <ele>476.176</ele>
        <time>2011-01-20T13:20:22Z</time>
      </trkpt>
      <trkpt lat="42.84398" lon="2.19436">
        <ele>475.637</ele>
        <time>2011-01-20T13:20:27Z</time>
      </trkpt>
      <trkpt lat="42.84405" lon="2.19419">
        <ele>474.715</ele>
        <time>2011-01-20T13:20:32Z</time>
      </trkpt>
      <trkpt lat="42.84413" lon="2.19405">
        <ele>475.064</ele>
        <time>2011-01-20T13:20:38Z</time>
      </trkpt>
      <trkpt lat="42.8442" lon="2.19387">
        <ele>476.472</ele>
        <time>2011-01-20T13:20:46Z</time>
      </trkpt>
      <trkpt lat="42.8443" lon="2.1937">
        <ele>477.155</ele>
        <time>2011-01-20T13:20:54Z</time>
      </trkpt>
      <trkpt lat="42.8444" lon="2.19358">
        <ele>478.069</ele>
        <time>2011-01-20T13:21:01Z</time>
      </trkpt>
      <trkpt lat="42.84449" lon="2.19348">
        <ele>479.123</ele>
        <time>2011-01-20T13:21:07Z</time>
      </trkpt>
      <trkpt lat="42.8446" lon="2.19339">
        <ele>479.533</ele>
        <time>2011-01-20T13:21:13Z</time>
      </trkpt>
      <trkpt lat="42.84475" lon="2.19327">
        <ele>479.915</ele>
        <time>2011-01-20T13:21:21Z</time>
      </trkpt>
      <trkpt lat="42.84485" lon="2.19308">
        <ele>480.583</ele>
        <time>2011-01-20T13:21:29Z</time>
      </trkpt>
      <trkpt lat="42.84495" lon="2.1929">
        <ele>481.523</ele>
        <time>2011-01-20T13:21:36Z</time>
      </trkpt>
      <trkpt lat="42.84501" lon="2.1927">
        <ele>482.232</ele>
        <time>2011-01-20T13:21:43Z</time>
      </trkpt>
      <trkpt lat="42.84509" lon="2.19254">
        <ele>483.045</ele>
        <time>2011-01-20T13:21:49Z</time>
      </trkpt>
      <trkpt lat="42.8452" lon="2.19234">
        <ele>484.379</ele>
        <time>2011-01-20T13:21:57Z</time>
      </trkpt>
      <trkpt lat="42.84526" lon="2.19217">
        <ele>485.024</ele>
        <time>2011-01-20T13:22:03Z</time>
      </trkpt>
      <trkpt lat="42.84531" lon="2.19205">
        <ele>485.521</ele>
        <time>2011-01-20T13:22:08Z</time>
      </trkpt>
      <trkpt lat="42.8454" lon="2.19188">
        <ele>486.695</ele>
        <time>2011-01-20T13:22:15Z</time>
      </trkpt>
      <trkpt lat="42.84544" lon="2.19172">
        <ele>487.65</ele>
        <time>2011-01-20T13:22:21Z</time>
      </trkpt>
      <trkpt lat="42.84551" lon="2.19148">
        <ele>489.078</ele>
        <time>2011-01-20T13:22:30Z</time>
      </trkpt>
      <trkpt lat="42.84557" lon="2.19132">
        <ele>489.378</ele>
        <time>2011-01-20T13:22:36Z</time>
      </trkpt>
      <trkpt lat="42.84562" lon="2.19112">
        <ele>490.699</ele>
        <time>2011-01-20T13:22:44Z</time>
      </trkpt>
      <trkpt lat="42.84571" lon="2.19089">
        <ele>492.138</ele>
        <time>2011-01-20T13:22:53Z</time>
      </trkpt>
      <trkpt lat="42.84576" lon="2.19065">
        <ele>493.253</ele>
        <time>2011-01-20T13:23:01Z</time>
      </trkpt>
      <trkpt lat="42.84583" lon="2.19034">
        <ele>494.174</ele>
        <time>2011-01-20T13:23:12Z</time>
      </trkpt>
      <trkpt lat="42.84588" lon="2.19012">
        <ele>495.192</ele>
        <time>2011-01-20T13:23:20Z</time>
      </trkpt>
      <trkpt lat="42.84595" lon="2.1899">
        <ele>495.978</ele>
        <time>2011-01-20T13:23:28Z</time>
      </trkpt>
      <trkpt lat="42.84598" lon="2.18978">
        <ele>496.477</ele>
        <time>2011-01-20T13:23:33Z</time>
      </trkpt>
      <trkpt lat="42.846" lon="2.18962">
        <ele>497.592</ele>
        <time>2011-01-20T13:23:39Z</time>
      </trkpt>
      <trkpt lat="42.84602" lon="2.18959">
        <ele>498.04</ele>
        <time>2011-01-20T13:23:41Z</time>
      </trkpt>
      <trkpt lat="42.84615" lon="2.18938">
        <ele>499.857</ele>
        <time>2011-01-20T13:23:51Z</time>
      </trkpt>
      <trkpt lat="42.84624" lon="2.1892">
        <ele>500.516</ele>
        <time>2011-01-20T13:23:58Z</time>
      </trkpt>
      <trkpt lat="42.84632" lon="2.18899">
        <ele>502.104</ele>
        <time>2011-01-20T13:24:06Z</time>
      </trkpt>
      <trkpt lat="42.84637" lon="2.18885">
        <ele>502.449</ele>
        <time>2011-01-20T13:24:11Z</time>
      </trkpt>
      <trkpt lat="42.84645" lon="2.18861">
        <ele>503.11</ele>
        <time>2011-01-20T13:24:19Z</time>
      </trkpt>
      <trkpt lat="42.84655" lon="2.18839">
        <ele>504.008</ele>
        <time>2011-01-20T13:24:27Z</time>
      </trkpt>
      <trkpt lat="42.84659" lon="2.1882">
        <ele>505.009</ele>
        <time>2011-01-20T13:24:34Z</time>
      </trkpt>
      <trkpt lat="42.84663" lon="2.188">
        <ele>506.004</ele>
        <time>2011-01-20T13:24:41Z</time>
      </trkpt>
      <trkpt lat="42.84664" lon="2.18784">
        <ele>506.144</ele>
        <time>2011-01-20T13:24:47Z</time>
      </trkpt>
      <trkpt lat="42.84661" lon="2.18762">
        <ele>507.885</ele>
        <time>2011-01-20T13:24:54Z</time>
      </trkpt>
      <trkpt lat="42.84658" lon="2.18739">
        <ele>508.521</ele>
        <time>2011-01-20T13:25:01Z</time>
      </trkpt>
      <trkpt lat="42.84661" lon="2.18722">
        <ele>508.94</ele>
        <time>2011-01-20T13:25:07Z</time>
      </trkpt>
      <trkpt lat="42.84669" lon="2.18709">
        <ele>509.529</ele>
        <time>2011-01-20T13:25:13Z</time>
      </trkpt>
      <trkpt lat="42.84682" lon="2.18691">
        <ele>510.758</ele>
        <time>2011-01-20T13:25:22Z</time>
      </trkpt>
      <trkpt lat="42.84693" lon="2.18672">
        <ele>511.655</ele>
        <time>2011-01-20T13:25:30Z</time>
      </trkpt>
      <trkpt lat="42.84694" lon="2.18659">
        <ele>512.287</ele>
        <time>2011-01-20T13:25:35Z</time>
      </trkpt>
      <trkpt lat="42.84681" lon="2.18643">
        <ele>512.765</ele>
        <time>2011-01-20T13:25:43Z</time>
      </trkpt>
      <trkpt lat="42.84666" lon="2.18629">
        <ele>513.432</ele>
        <time>2011-01-20T13:25:51Z</time>
      </trkpt>
      <trkpt lat="42.84653" lon="2.18608">
        <ele>514.718</ele>
        <time>2011-01-20T13:26:00Z</time>
      </trkpt>
      <trkpt lat="42.84645" lon="2.18593">
        <ele>515.02</ele>
        <time>2011-01-20T13:26:06Z</time>
      </trkpt>
      <trkpt lat="42.84633" lon="2.18576">
        <ele>516.244</ele>
        <time>2011-01-20T13:26:13Z</time>
      </trkpt>
      <trkpt lat="42.84619" lon="2.18561">
        <ele>517.064</ele>
        <time>2011-01-20T13:26:20Z</time>
      </trkpt>
      <trkpt lat="42.84613" lon="2.18546">
        <ele>517.957</ele>
        <time>2011-01-20T13:26:26Z</time>
      </trkpt>
      <trkpt lat="42.84613" lon="2.18528">
        <ele>518.13</ele>
        <time>2011-01-20T13:26:32Z</time>
      </trkpt>
      <trkpt lat="42.84612" lon="2.18522">
        <ele>518.155</ele>
        <time>2011-01-20T13:26:36Z</time>
      </trkpt>
      <trkpt lat="42.84613" lon="2.1852">
        <ele>518.258</ele>
        <time>2011-01-20T13:26:42Z</time>
      </trkpt>
      <trkpt lat="42.84616" lon="2.18515">
        <ele>518.346</ele>
        <time>2011-01-20T13:26:47Z</time>
      </trkpt>
      <trkpt lat="42.84616" lon="2.18511">
        <ele>518.357</ele>
        <time>2011-01-20T13:26:50Z</time>
      </trkpt>
      <trkpt lat="42.84615" lon="2.18501">
        <ele>518.435</ele>
        <time>2011-01-20T13:26:54Z</time>
      </trkpt>
      <trkpt lat="42.84617" lon="2.1848">
        <ele>519.015</ele>
        <time>2011-01-20T13:27:01Z</time>
      </trkpt>
      <trkpt lat="42.8462" lon="2.18461">
        <ele>519.054</ele>
        <time>2011-01-20T13:27:07Z</time>
      </trkpt>
      <trkpt lat="42.84623" lon="2.18441">
        <ele>519.398</ele>
        <time>2011-01-20T13:27:13Z</time>
      </trkpt>
      <trkpt lat="42.84623" lon="2.18423">
        <ele>519.558</ele>
        <time>2011-01-20T13:27:19Z</time>
      </trkpt>
      <trkpt lat="42.84618" lon="2.18397">
        <ele>520.325</ele>
        <time>2011-01-20T13:27:27Z</time>
      </trkpt>
      <trkpt lat="42.84616" lon="2.18373">
        <ele>520.43</ele>
        <time>2011-01-20T13:27:34Z</time>
      </trkpt>
      <trkpt lat="42.84613" lon="2.18349">
        <ele>519.736</ele>
        <time>2011-01-20T13:27:40Z</time>
      </trkpt>
      <trkpt lat="42.84613" lon="2.18322">
        <ele>519.015</ele>
        <time>2011-01-20T13:27:46Z</time>
      </trkpt>
      <trkpt lat="42.84619" lon="2.1831">
        <ele>518.766</ele>
        <time>2011-01-20T13:27:51Z</time>
      </trkpt>
      <trkpt lat="42.84625" lon="2.18293">
        <ele>518.082</ele>
        <time>2011-01-20T13:27:57Z</time>
      </trkpt>
      <trkpt lat="42.84631" lon="2.18278">
        <ele>517.641</ele>
        <time>2011-01-20T13:28:02Z</time>
      </trkpt>
      <trkpt lat="42.8464" lon="2.18272">
        <ele>517.232</ele>
        <time>2011-01-20T13:28:07Z</time>
      </trkpt>
      <trkpt lat="42.84652" lon="2.18269">
        <ele>517.13</ele>
        <time>2011-01-20T13:28:13Z</time>
      </trkpt>
      <trkpt lat="42.84662" lon="2.18262">
        <ele>516.741</ele>
        <time>2011-01-20T13:28:18Z</time>
      </trkpt>
      <trkpt lat="42.84669" lon="2.18253">
        <ele>516.27</ele>
        <time>2011-01-20T13:28:23Z</time>
      </trkpt>
      <trkpt lat="42.8468" lon="2.18247">
        <ele>515.538</ele>
        <time>2011-01-20T13:28:28Z</time>
      </trkpt>
      <trkpt lat="42.84692" lon="2.18237">
        <ele>514.825</ele>
        <time>2011-01-20T13:28:33Z</time>
      </trkpt>
      <trkpt lat="42.84707" lon="2.18227">
        <ele>513.743</ele>
        <time>2011-01-20T13:28:38Z</time>
      </trkpt>
      <trkpt lat="42.8472" lon="2.1822">
        <ele>513.523</ele>
        <time>2011-01-20T13:28:43Z</time>
      </trkpt>
      <trkpt lat="42.84731" lon="2.18205">
        <ele>513.353</ele>
        <time>2011-01-20T13:28:49Z</time>
      </trkpt>
      <trkpt lat="42.84735" lon="2.18184">
        <ele>512.308</ele>
        <time>2011-01-20T13:28:53Z</time>
      </trkpt>
      <trkpt lat="42.84733" lon="2.18159">
        <ele>510.618</ele>
        <time>2011-01-20T13:28:58Z</time>
      </trkpt>
      <trkpt lat="42.8473" lon="2.1814">
        <ele>509.377</ele>
        <time>2011-01-20T13:29:02Z</time>
      </trkpt>
      <trkpt lat="42.84721" lon="2.18114">
        <ele>508.048</ele>
        <time>2011-01-20T13:29:08Z</time>
      </trkpt>
      <trkpt lat="42.8472" lon="2.18087">
        <ele>506.486</ele>
        <time>2011-01-20T13:29:13Z</time>
      </trkpt>
      <trkpt lat="42.84721" lon="2.18063">
        <ele>505.455</ele>
        <time>2011-01-20T13:29:17Z</time>
      </trkpt>
      <trkpt lat="42.84738" lon="2.18024">
        <ele>504.037</ele>
        <time>2011-01-20T13:29:24Z</time>
      </trkpt>
      <trkpt lat="42.84747" lon="2.18001">
        <ele>502.151</ele>
        <time>2011-01-20T13:29:29Z</time>
      </trkpt>
      <trkpt lat="42.84757" lon="2.1798">
        <ele>500.957</ele>
        <time>2011-01-20T13:29:34Z</time>
      </trkpt>
      <trkpt lat="42.84759" lon="2.17956">
        <ele>500.21</ele>
        <time>2011-01-20T13:29:40Z</time>
      </trkpt>
      <trkpt lat="42.84756" lon="2.17936">
        <ele>500.413</ele>
        <time>2011-01-20T13:29:46Z</time>
      </trkpt>
      <trkpt lat="42.8476" lon="2.17921">
        <ele>500.536</ele>
        <time>2011-01-20T13:29:50Z</time>
      </trkpt>
      <trkpt lat="42.84765" lon="2.17896">
        <ele>501.21</ele>
        <time>2011-01-20T13:29:56Z</time>
      </trkpt>
      <trkpt lat="42.84766" lon="2.17876">
        <ele>502.256</ele>
        <time>2011-01-20T13:30:01Z</time>
      </trkpt>
      <trkpt lat="42.8477" lon="2.1785">
        <ele>503.609</ele>
        <time>2011-01-20T13:30:07Z</time>
      </trkpt>
      <trkpt lat="42.84779" lon="2.17831">
        <ele>504.749</ele>
        <time>2011-01-20T13:30:13Z</time>
      </trkpt>
      <trkpt lat="42.84784" lon="2.17812">
        <ele>505.74</ele>
        <time>2011-01-20T13:30:18Z</time>
      </trkpt>
      <trkpt lat="42.84787" lon="2.17791">
        <ele>506.725</ele>
        <time>2011-01-20T13:30:24Z</time>
      </trkpt>
      <trkpt lat="42.84791" lon="2.17759">
        <ele>508.36</ele>
        <time>2011-01-20T13:30:33Z</time>
      </trkpt>
      <trkpt lat="42.84793" lon="2.17738">
        <ele>509.471</ele>
        <time>2011-01-20T13:30:39Z</time>
      </trkpt>
      <trkpt lat="42.84794" lon="2.17728">
        <ele>510.112</ele>
        <time>2011-01-20T13:30:42Z</time>
      </trkpt>
      <trkpt lat="42.84796" lon="2.17713">
        <ele>511.753</ele>
        <time>2011-01-20T13:30:47Z</time>
      </trkpt>
      <trkpt lat="42.84797" lon="2.17693">
        <ele>514.184</ele>
        <time>2011-01-20T13:30:54Z</time>
      </trkpt>
      <trkpt lat="42.84794" lon="2.17671">
        <ele>516.094</ele>
        <time>2011-01-20T13:31:01Z</time>
      </trkpt>
      <trkpt lat="42.84789" lon="2.17655">
        <ele>517.14</ele>
        <time>2011-01-20T13:31:07Z</time>
      </trkpt>
      <trkpt lat="42.84785" lon="2.17633">
        <ele>519.076</ele>
        <time>2011-01-20T13:31:14Z</time>
      </trkpt>
      <trkpt lat="42.84781" lon="2.17613">
        <ele>520.863</ele>
        <time>2011-01-20T13:31:21Z</time>
      </trkpt>
      <trkpt lat="42.8478" lon="2.17595">
        <ele>522.134</ele>
        <time>2011-01-20T13:31:27Z</time>
      </trkpt>
      <trkpt lat="42.84783" lon="2.17581">
        <ele>523.499</ele>
        <time>2011-01-20T13:31:33Z</time>
      </trkpt>
      <trkpt lat="42.84789" lon="2.1757">
        <ele>524.842</ele>
        <time>2011-01-20T13:31:38Z</time>
      </trkpt>
      <trkpt lat="42.84797" lon="2.17559">
        <ele>526.14</ele>
        <time>2011-01-20T13:31:44Z</time>
      </trkpt>
      <trkpt lat="42.84806" lon="2.17548">
        <ele>527.777</ele>
        <time>2011-01-20T13:31:49Z</time>
      </trkpt>
      <trkpt lat="42.84813" lon="2.17537">
        <ele>529.297</ele>
        <time>2011-01-20T13:31:54Z</time>
      </trkpt>
      <trkpt lat="42.84818" lon="2.17521">
        <ele>530.08</ele>
        <time>2011-01-20T13:31:59Z</time>
      </trkpt>
      <trkpt lat="42.84823" lon="2.17503">
        <ele>531.829</ele>
        <time>2011-01-20T13:32:05Z</time>
      </trkpt>
      <trkpt lat="42.84827" lon="2.17485">
        <ele>533.101</ele>
        <time>2011-01-20T13:32:11Z</time>
      </trkpt>
      <trkpt lat="42.84829" lon="2.17468">
        <ele>534.565</ele>
        <time>2011-01-20T13:32:17Z</time>
      </trkpt>
      <trkpt lat="42.84831" lon="2.17451">
        <ele>535.742</ele>
        <time>2011-01-20T13:32:23Z</time>
      </trkpt>
      <trkpt lat="42.84831" lon="2.17435">
        <ele>537.261</ele>
        <time>2011-01-20T13:32:29Z</time>
      </trkpt>
      <trkpt lat="42.84831" lon="2.17418">
        <ele>538.453</ele>
        <time>2011-01-20T13:32:34Z</time>
      </trkpt>
      <trkpt lat="42.84831" lon="2.17408">
        <ele>539.41</ele>
        <time>2011-01-20T13:32:38Z</time>
      </trkpt>
      <trkpt lat="42.84832" lon="2.17403">
        <ele>540.047</ele>
        <time>2011-01-20T13:32:40Z</time>
      </trkpt>
      <trkpt lat="42.84835" lon="2.1739">
        <ele>541.002</ele>
        <time>2011-01-20T13:32:45Z</time>
      </trkpt>
      <trkpt lat="42.84847" lon="2.17364">
        <ele>543.682</ele>
        <time>2011-01-20T13:32:55Z</time>
      </trkpt>
      <trkpt lat="42.84855" lon="2.17351">
        <ele>545.179</ele>
        <time>2011-01-20T13:33:01Z</time>
      </trkpt>
      <trkpt lat="42.84866" lon="2.17332">
        <ele>547.188</ele>
        <time>2011-01-20T13:33:09Z</time>
      </trkpt>
      <trkpt lat="42.84876" lon="2.17313">
        <ele>548.848</ele>
        <time>2011-01-20T13:33:17Z</time>
      </trkpt>
      <trkpt lat="42.84889" lon="2.17288">
        <ele>551.689</ele>
        <time>2011-01-20T13:33:28Z</time>
      </trkpt>
      <trkpt lat="42.84897" lon="2.17269">
        <ele>553.295</ele>
        <time>2011-01-20T13:33:36Z</time>
      </trkpt>
      <trkpt lat="42.84904" lon="2.17246">
        <ele>555.299</ele>
        <time>2011-01-20T13:33:45Z</time>
      </trkpt>
      <trkpt lat="42.8491" lon="2.17226">
        <ele>556.917</ele>
        <time>2011-01-20T13:33:53Z</time>
      </trkpt>
      <trkpt lat="42.84917" lon="2.17205">
        <ele>558.858</ele>
        <time>2011-01-20T13:34:01Z</time>
      </trkpt>
      <trkpt lat="42.84924" lon="2.17183">
        <ele>560.423</ele>
        <time>2011-01-20T13:34:10Z</time>
      </trkpt>
      <trkpt lat="42.8493" lon="2.17161">
        <ele>562.475</ele>
        <time>2011-01-20T13:34:19Z</time>
      </trkpt>
      <trkpt lat="42.84934" lon="2.1714">
        <ele>564.235</ele>
        <time>2011-01-20T13:34:28Z</time>
      </trkpt>
      <trkpt lat="42.84939" lon="2.17117">
        <ele>566.028</ele>
        <time>2011-01-20T13:34:37Z</time>
      </trkpt>
      <trkpt lat="42.84941" lon="2.17099">
        <ele>567.99</ele>
        <time>2011-01-20T13:34:44Z</time>
      </trkpt>
      <trkpt lat="42.84945" lon="2.17074">
        <ele>571.461</ele>
        <time>2011-01-20T13:34:53Z</time>
      </trkpt>
      <trkpt lat="42.84946" lon="2.17053">
        <ele>572.493</ele>
        <time>2011-01-20T13:35:01Z</time>
      </trkpt>
      <trkpt lat="42.84949" lon="2.17033">
        <ele>573.949</ele>
        <time>2011-01-20T13:35:09Z</time>
      </trkpt>
      <trkpt lat="42.8495" lon="2.17015">
        <ele>575.03</ele>
        <time>2011-01-20T13:35:16Z</time>
      </trkpt>
      <trkpt lat="42.84951" lon="2.17002">
        <ele>575.793</ele>
        <time>2011-01-20T13:35:21Z</time>
      </trkpt>
      <trkpt lat="42.84951" lon="2.16977">
        <ele>577.959</ele>
        <time>2011-01-20T13:35:30Z</time>
      </trkpt>
      <trkpt lat="42.84953" lon="2.16952">
        <ele>579.718</ele>
        <time>2011-01-20T13:35:39Z</time>
      </trkpt>
      <trkpt lat="42.84953" lon="2.16933">
        <ele>581.261</ele>
        <time>2011-01-20T13:35:46Z</time>
      </trkpt>
      <trkpt lat="42.84953" lon="2.16914">
        <ele>582.603</ele>
        <time>2011-01-20T13:35:53Z</time>
      </trkpt>
      <trkpt lat="42.84952" lon="2.16893">
        <ele>584.206</ele>
        <time>2011-01-20T13:36:01Z</time>
      </trkpt>
      <trkpt lat="42.8495" lon="2.16875">
        <ele>585.603</ele>
        <time>2011-01-20T13:36:08Z</time>
      </trkpt>
      <trkpt lat="42.84947" lon="2.16859">
        <ele>586.94</ele>
        <time>2011-01-20T13:36:14Z</time>
      </trkpt>
      <trkpt lat="42.84943" lon="2.16842">
        <ele>588.211</ele>
        <time>2011-01-20T13:36:20Z</time>
      </trkpt>
      <trkpt lat="42.8494" lon="2.16828">
        <ele>589.695</ele>
        <time>2011-01-20T13:36:26Z</time>
      </trkpt>
      <trkpt lat="42.84936" lon="2.16811">
        <ele>591.119</ele>
        <time>2011-01-20T13:36:32Z</time>
      </trkpt>
      <trkpt lat="42.8493" lon="2.16791">
        <ele>592.174</ele>
        <time>2011-01-20T13:36:39Z</time>
      </trkpt>
      <trkpt lat="42.84926" lon="2.16776">
        <ele>593.214</ele>
        <time>2011-01-20T13:36:45Z</time>
      </trkpt>
      <trkpt lat="42.8492" lon="2.16754">
        <ele>595.309</ele>
        <time>2011-01-20T13:36:54Z</time>
      </trkpt>
      <trkpt lat="42.84913" lon="2.16734">
        <ele>597.092</ele>
        <time>2011-01-20T13:37:02Z</time>
      </trkpt>
      <trkpt lat="42.84904" lon="2.16716">
        <ele>599.318</ele>
        <time>2011-01-20T13:37:10Z</time>
      </trkpt>
      <trkpt lat="42.84895" lon="2.16703">
        <ele>601.444</ele>
        <time>2011-01-20T13:37:16Z</time>
      </trkpt>
      <trkpt lat="42.84885" lon="2.16689">
        <ele>603.278</ele>
        <time>2011-01-20T13:37:23Z</time>
      </trkpt>
      <trkpt lat="42.84877" lon="2.16678">
        <ele>605.191</ele>
        <time>2011-01-20T13:37:30Z</time>
      </trkpt>
      <trkpt lat="42.84862" lon="2.16663">
        <ele>607.568</ele>
        <time>2011-01-20T13:37:38Z</time>
      </trkpt>
      <trkpt lat="42.84856" lon="2.16648">
        <ele>608.815</ele>
        <time>2011-01-20T13:37:44Z</time>
      </trkpt>
      <trkpt lat="42.84856" lon="2.16632">
        <ele>609.712</ele>
        <time>2011-01-20T13:37:50Z</time>
      </trkpt>
      <trkpt lat="42.84859" lon="2.16619">
        <ele>611.37</ele>
        <time>2011-01-20T13:37:56Z</time>
      </trkpt>
      <trkpt lat="42.8486" lon="2.16617">
        <ele>611.576</ele>
        <time>2011-01-20T13:37:57Z</time>
      </trkpt>
      <trkpt lat="42.84869" lon="2.16603">
        <ele>612.914</ele>
        <time>2011-01-20T13:38:04Z</time>
      </trkpt>
      <trkpt lat="42.84878" lon="2.16591">
        <ele>614.027</ele>
        <time>2011-01-20T13:38:11Z</time>
      </trkpt>
      <trkpt lat="42.84887" lon="2.16578">
        <ele>615.27</ele>
        <time>2011-01-20T13:38:18Z</time>
      </trkpt>
      <trkpt lat="42.84893" lon="2.1657">
        <ele>616.015</ele>
        <time>2011-01-20T13:38:23Z</time>
      </trkpt>
      <trkpt lat="42.849" lon="2.16564">
        <ele>617.206</ele>
        <time>2011-01-20T13:38:27Z</time>
      </trkpt>
      <trkpt lat="42.84905" lon="2.16554">
        <ele>618.444</ele>
        <time>2011-01-20T13:38:32Z</time>
      </trkpt>
      <trkpt lat="42.84915" lon="2.16527">
        <ele>620.554</ele>
        <time>2011-01-20T13:38:41Z</time>
      </trkpt>
      <trkpt lat="42.84927" lon="2.16499">
        <ele>622.944</ele>
        <time>2011-01-20T13:38:52Z</time>
      </trkpt>
      <trkpt lat="42.84933" lon="2.16483">
        <ele>624.356</ele>
        <time>2011-01-20T13:38:59Z</time>
      </trkpt>
      <trkpt lat="42.84941" lon="2.16461">
        <ele>626.259</ele>
        <time>2011-01-20T13:39:08Z</time>
      </trkpt>
      <trkpt lat="42.84947" lon="2.16443">
        <ele>628.101</ele>
        <time>2011-01-20T13:39:15Z</time>
      </trkpt>
      <trkpt lat="42.84951" lon="2.16427">
        <ele>629.728</ele>
        <time>2011-01-20T13:39:21Z</time>
      </trkpt>
      <trkpt lat="42.84957" lon="2.16402">
        <ele>631.952</ele>
        <time>2011-01-20T13:39:30Z</time>
      </trkpt>
      <trkpt lat="42.8496" lon="2.16382">
        <ele>633.761</ele>
        <time>2011-01-20T13:39:38Z</time>
      </trkpt>
      <trkpt lat="42.84963" lon="2.16363">
        <ele>635.283</ele>
        <time>2011-01-20T13:39:45Z</time>
      </trkpt>
      <trkpt lat="42.84965" lon="2.1634">
        <ele>637.222</ele>
        <time>2011-01-20T13:39:53Z</time>
      </trkpt>
      <trkpt lat="42.84967" lon="2.16317">
        <ele>639.049</ele>
        <time>2011-01-20T13:40:01Z</time>
      </trkpt>
      <trkpt lat="42.84971" lon="2.163">
        <ele>640.681</ele>
        <time>2011-01-20T13:40:08Z</time>
      </trkpt>
      <trkpt lat="42.84975" lon="2.16282">
        <ele>642.074</ele>
        <time>2011-01-20T13:40:15Z</time>
      </trkpt>
      <trkpt lat="42.8498" lon="2.16272">
        <ele>643.044</ele>
        <time>2011-01-20T13:40:19Z</time>
      </trkpt>
      <trkpt lat="42.84986" lon="2.16251">
        <ele>644.915</ele>
        <time>2011-01-20T13:40:27Z</time>
      </trkpt>
      <trkpt lat="42.84993" lon="2.1623">
        <ele>646.699</ele>
        <time>2011-01-20T13:40:35Z</time>
      </trkpt>
      <trkpt lat="42.84999" lon="2.16215">
        <ele>648.026</ele>
        <time>2011-01-20T13:40:41Z</time>
      </trkpt>
      <trkpt lat="42.85006" lon="2.16192">
        <ele>649.49</ele>
        <time>2011-01-20T13:40:50Z</time>
      </trkpt>
      <trkpt lat="42.85011" lon="2.16175">
        <ele>651.077</ele>
        <time>2011-01-20T13:40:57Z</time>
      </trkpt>
      <trkpt lat="42.85015" lon="2.16156">
        <ele>652.694</ele>
        <time>2011-01-20T13:41:05Z</time>
      </trkpt>
      <trkpt lat="42.85018" lon="2.1615">
        <ele>653.32</ele>
        <time>2011-01-20T13:41:10Z</time>
      </trkpt>
      <trkpt lat="42.85024" lon="2.16143">
        <ele>653.091</ele>
        <time>2011-01-20T13:42:53Z</time>
      </trkpt>
      <trkpt lat="42.85026" lon="2.16126">
        <ele>654.279</ele>
        <time>2011-01-20T13:43:00Z</time>
      </trkpt>
      <trkpt lat="42.85029" lon="2.16108">
        <ele>655.797</ele>
        <time>2011-01-20T13:43:07Z</time>
      </trkpt>
      <trkpt lat="42.85032" lon="2.16094">
        <ele>657.454</ele>
        <time>2011-01-20T13:43:12Z</time>
      </trkpt>
      <trkpt lat="42.85034" lon="2.16076">
        <ele>659.078</ele>
        <time>2011-01-20T13:43:18Z</time>
      </trkpt>
      <trkpt lat="42.85038" lon="2.16056">
        <ele>660.774</ele>
        <time>2011-01-20T13:43:26Z</time>
      </trkpt>
      <trkpt lat="42.8504" lon="2.16043">
        <ele>662.648</ele>
        <time>2011-01-20T13:43:32Z</time>
      </trkpt>
      <trkpt lat="42.85043" lon="2.16034">
        <ele>663.947</ele>
        <time>2011-01-20T13:43:38Z</time>
      </trkpt>
      <trkpt lat="42.85043" lon="2.16035">
        <ele>664.093</ele>
        <time>2011-01-20T13:43:40Z</time>
      </trkpt>
      <trkpt lat="42.8504" lon="2.16049">
        <ele>664.182</ele>
        <time>2011-01-20T13:43:45Z</time>
      </trkpt>
      <trkpt lat="42.85036" lon="2.16071">
        <ele>663.397</ele>
        <time>2011-01-20T13:43:49Z</time>
      </trkpt>
      <trkpt lat="42.85028" lon="2.16106">
        <ele>660.315</ele>
        <time>2011-01-20T13:43:55Z</time>
      </trkpt>
      <trkpt lat="42.85018" lon="2.16144">
        <ele>657.021</ele>
        <time>2011-01-20T13:44:02Z</time>
      </trkpt>
      <trkpt lat="42.8502" lon="2.16155">
        <ele>654.733</ele>
        <time>2011-01-20T13:44:06Z</time>
      </trkpt>
      <trkpt lat="42.8502" lon="2.16156">
        <ele>652.579</ele>
        <time>2011-01-20T13:44:13Z</time>
      </trkpt>
      <trkpt lat="42.8502" lon="2.16156">
        <ele>652.342</ele>
        <time>2011-01-20T13:44:16Z</time>
      </trkpt>
      <trkpt lat="42.85019" lon="2.16152">
        <ele>653.068</ele>
        <time>2011-01-20T13:44:22Z</time>
      </trkpt>
      <trkpt lat="42.85018" lon="2.1615">
        <ele>653.494</ele>
        <time>2011-01-20T13:44:26Z</time>
      </trkpt>
      <trkpt lat="42.85019" lon="2.16151">
        <ele>654.415</ele>
        <time>2011-01-20T13:44:33Z</time>
      </trkpt>
      <trkpt lat="42.85021" lon="2.16154">
        <ele>654.108</ele>
        <time>2011-01-20T13:44:43Z</time>
      </trkpt>
      <trkpt lat="42.85022" lon="2.16163">
        <ele>650.824</ele>
        <time>2011-01-20T13:44:50Z</time>
      </trkpt>
      <trkpt lat="42.85021" lon="2.16169">
        <ele>648.913</ele>
        <time>2011-01-20T13:44:55Z</time>
      </trkpt>
      <trkpt lat="42.8502" lon="2.16178">
        <ele>646.89</ele>
        <time>2011-01-20T13:45:01Z</time>
      </trkpt>
      <trkpt lat="42.8502" lon="2.16183">
        <ele>645.553</ele>
        <time>2011-01-20T13:45:05Z</time>
      </trkpt>
      <trkpt lat="42.85022" lon="2.16188">
        <ele>644.102</ele>
        <time>2011-01-20T13:45:08Z</time>
      </trkpt>
      <trkpt lat="42.85025" lon="2.16187">
        <ele>641.672</ele>
        <time>2011-01-20T13:45:12Z</time>
      </trkpt>
      <trkpt lat="42.85037" lon="2.16175">
        <ele>638.678</ele>
        <time>2011-01-20T13:45:19Z</time>
      </trkpt>
      <trkpt lat="42.85042" lon="2.16168">
        <ele>635.733</ele>
        <time>2011-01-20T13:45:24Z</time>
      </trkpt>
      <trkpt lat="42.85045" lon="2.1617">
        <ele>633.952</ele>
        <time>2011-01-20T13:45:30Z</time>
      </trkpt>
      <trkpt lat="42.85046" lon="2.16179">
        <ele>632.29</ele>
        <time>2011-01-20T13:45:34Z</time>
      </trkpt>
      <trkpt lat="42.85044" lon="2.16191">
        <ele>629.927</ele>
        <time>2011-01-20T13:45:38Z</time>
      </trkpt>
      <trkpt lat="42.8505" lon="2.16191">
        <ele>626.258</ele>
        <time>2011-01-20T13:45:43Z</time>
      </trkpt>
      <trkpt lat="42.85055" lon="2.16186">
        <ele>623.958</ele>
        <time>2011-01-20T13:45:46Z</time>
      </trkpt>
      <trkpt lat="42.85063" lon="2.1618">
        <ele>620.905</ele>
        <time>2011-01-20T13:45:50Z</time>
      </trkpt>
      <trkpt lat="42.85068" lon="2.16184">
        <ele>617.522</ele>
        <time>2011-01-20T13:45:55Z</time>
      </trkpt>
      <trkpt lat="42.85069" lon="2.16196">
        <ele>614.313</ele>
        <time>2011-01-20T13:45:59Z</time>
      </trkpt>
      <trkpt lat="42.85068" lon="2.16198">
        <ele>613.649</ele>
        <time>2011-01-20T13:46:00Z</time>
      </trkpt>
      <trkpt lat="42.85068" lon="2.16202">
        <ele>612.331</ele>
        <time>2011-01-20T13:46:02Z</time>
      </trkpt>
      <trkpt lat="42.85073" lon="2.16204">
        <ele>609.337</ele>
        <time>2011-01-20T13:46:07Z</time>
      </trkpt>
      <trkpt lat="42.85083" lon="2.16196">
        <ele>606.494</ele>
        <time>2011-01-20T13:46:12Z</time>
      </trkpt>
      <trkpt lat="42.85084" lon="2.16194">
        <ele>605.803</ele>
        <time>2011-01-20T13:46:13Z</time>
      </trkpt>
      <trkpt lat="42.85089" lon="2.1619">
        <ele>604.293</ele>
        <time>2011-01-20T13:46:16Z</time>
      </trkpt>
      <trkpt lat="42.85093" lon="2.16188">
        <ele>602.811</ele>
        <time>2011-01-20T13:46:18Z</time>
      </trkpt>
      <trkpt lat="42.85098" lon="2.16193">
        <ele>599.658</ele>
        <time>2011-01-20T13:46:23Z</time>
      </trkpt>
      <trkpt lat="42.85097" lon="2.16196">
        <ele>599.141</ele>
        <time>2011-01-20T13:46:24Z</time>
      </trkpt>
      <trkpt lat="42.85097" lon="2.16201">
        <ele>598.193</ele>
        <time>2011-01-20T13:46:26Z</time>
      </trkpt>
      <trkpt lat="42.85099" lon="2.16205">
        <ele>596.907</ele>
        <time>2011-01-20T13:46:29Z</time>
      </trkpt>
      <trkpt lat="42.85108" lon="2.16194">
        <ele>594.852</ele>
        <time>2011-01-20T13:46:35Z</time>
      </trkpt>
      <trkpt lat="42.85118" lon="2.16177">
        <ele>592.899</ele>
        <time>2011-01-20T13:46:40Z</time>
      </trkpt>
      <trkpt lat="42.85127" lon="2.16168">
        <ele>590.282</ele>
        <time>2011-01-20T13:46:45Z</time>
      </trkpt>
      <trkpt lat="42.85129" lon="2.16165">
        <ele>587.886</ele>
        <time>2011-01-20T13:46:49Z</time>
      </trkpt>
      <trkpt lat="42.85132" lon="2.16161">
        <ele>587.059</ele>
        <time>2011-01-20T13:46:53Z</time>
      </trkpt>
      <trkpt lat="42.85134" lon="2.1616">
        <ele>586.536</ele>
        <time>2011-01-20T13:46:55Z</time>
      </trkpt>
      <trkpt lat="42.85137" lon="2.16165">
        <ele>584.279</ele>
        <time>2011-01-20T13:47:01Z</time>
      </trkpt>
      <trkpt lat="42.85137" lon="2.16174">
        <ele>583.213</ele>
        <time>2011-01-20T13:47:05Z</time>
      </trkpt>
      <trkpt lat="42.85139" lon="2.16192">
        <ele>580.528</ele>
        <time>2011-01-20T13:47:11Z</time>
      </trkpt>
      <trkpt lat="42.85142" lon="2.16198">
        <ele>577.61</ele>
        <time>2011-01-20T13:47:16Z</time>
      </trkpt>
      <trkpt lat="42.85142" lon="2.16198">
        <ele>577.229</ele>
        <time>2011-01-20T13:47:17Z</time>
      </trkpt>
      <trkpt lat="42.85148" lon="2.16201">
        <ele>575.484</ele>
        <time>2011-01-20T13:47:22Z</time>
      </trkpt>
      <trkpt lat="42.85151" lon="2.16197">
        <ele>573.385</ele>
        <time>2011-01-20T13:47:26Z</time>
      </trkpt>
      <trkpt lat="42.85153" lon="2.162">
        <ele>571.42</ele>
        <time>2011-01-20T13:47:32Z</time>
      </trkpt>
      <trkpt lat="42.85153" lon="2.16201">
        <ele>571.012</ele>
        <time>2011-01-20T13:47:33Z</time>
      </trkpt>
      <trkpt lat="42.85155" lon="2.16218">
        <ele>568.599</ele>
        <time>2011-01-20T13:47:39Z</time>
      </trkpt>
      <trkpt lat="42.85153" lon="2.16238">
        <ele>565.464</ele>
        <time>2011-01-20T13:47:44Z</time>
      </trkpt>
      <trkpt lat="42.85148" lon="2.16261">
        <ele>560.554</ele>
        <time>2011-01-20T13:47:50Z</time>
      </trkpt>
      <trkpt lat="42.85149" lon="2.16277">
        <ele>556.966</ele>
        <time>2011-01-20T13:47:55Z</time>
      </trkpt>
      <trkpt lat="42.8515" lon="2.16282">
        <ele>555.543</ele>
        <time>2011-01-20T13:47:57Z</time>
      </trkpt>
      <trkpt lat="42.85154" lon="2.16287">
        <ele>552.428</ele>
        <time>2011-01-20T13:48:03Z</time>
      </trkpt>
      <trkpt lat="42.85155" lon="2.16286">
        <ele>551.494</ele>
        <time>2011-01-20T13:48:06Z</time>
      </trkpt>
      <trkpt lat="42.85157" lon="2.16286">
        <ele>550.991</ele>
        <time>2011-01-20T13:48:08Z</time>
      </trkpt>
      <trkpt lat="42.8516" lon="2.16289">
        <ele>549.32</ele>
        <time>2011-01-20T13:48:13Z</time>
      </trkpt>
      <trkpt lat="42.85161" lon="2.163">
        <ele>547.442</ele>
        <time>2011-01-20T13:48:19Z</time>
      </trkpt>
      <trkpt lat="42.85162" lon="2.16307">
        <ele>545.684</ele>
        <time>2011-01-20T13:48:22Z</time>
      </trkpt>
      <trkpt lat="42.85163" lon="2.16313">
        <ele>544.969</ele>
        <time>2011-01-20T13:48:24Z</time>
      </trkpt>
      <trkpt lat="42.85167" lon="2.16327">
        <ele>541.109</ele>
        <time>2011-01-20T13:48:31Z</time>
      </trkpt>
      <trkpt lat="42.85167" lon="2.16345">
        <ele>538.889</ele>
        <time>2011-01-20T13:48:35Z</time>
      </trkpt>
      <trkpt lat="42.85169" lon="2.16374">
        <ele>535.042</ele>
        <time>2011-01-20T13:48:41Z</time>
      </trkpt>
      <trkpt lat="42.85169" lon="2.16383">
        <ele>532.796</ele>
        <time>2011-01-20T13:48:45Z</time>
      </trkpt>
      <trkpt lat="42.8517" lon="2.16384">
        <ele>532.493</ele>
        <time>2011-01-20T13:48:46Z</time>
      </trkpt>
      <trkpt lat="42.8517" lon="2.16385">
        <ele>532.315</ele>
        <time>2011-01-20T13:48:55Z</time>
      </trkpt>
      <trkpt lat="42.8517" lon="2.16385">
        <ele>532.337</ele>
        <time>2011-01-20T13:48:57Z</time>
      </trkpt>
      <trkpt lat="42.85172" lon="2.16396">
        <ele>531.765</ele>
        <time>2011-01-20T13:49:01Z</time>
      </trkpt>
      <trkpt lat="42.8518" lon="2.16422">
        <ele>528.225</ele>
        <time>2011-01-20T13:49:07Z</time>
      </trkpt>
      <trkpt lat="42.85187" lon="2.16441">
        <ele>523.72</ele>
        <time>2011-01-20T13:49:13Z</time>
      </trkpt>
      <trkpt lat="42.85188" lon="2.16444">
        <ele>523.718</ele>
        <time>2011-01-20T13:49:14Z</time>
      </trkpt>
      <trkpt lat="42.85194" lon="2.16451">
        <ele>521.029</ele>
        <time>2011-01-20T13:49:17Z</time>
      </trkpt>
      <trkpt lat="42.85201" lon="2.16468">
        <ele>516.183</ele>
        <time>2011-01-20T13:49:23Z</time>
      </trkpt>
      <trkpt lat="42.8521" lon="2.16486">
        <ele>511.469</ele>
        <time>2011-01-20T13:49:29Z</time>
      </trkpt>
      <trkpt lat="42.85213" lon="2.16493">
        <ele>509.189</ele>
        <time>2011-01-20T13:49:32Z</time>
      </trkpt>
      <trkpt lat="42.85218" lon="2.165">
        <ele>506.994</ele>
        <time>2011-01-20T13:49:36Z</time>
      </trkpt>
      <trkpt lat="42.85224" lon="2.16523">
        <ele>503.052</ele>
        <time>2011-01-20T13:49:43Z</time>
      </trkpt>
      <trkpt lat="42.85229" lon="2.16542">
        <ele>498.772</ele>
        <time>2011-01-20T13:49:49Z</time>
      </trkpt>
      <trkpt lat="42.85233" lon="2.16562">
        <ele>494.322</ele>
        <time>2011-01-20T13:49:55Z</time>
      </trkpt>
      <trkpt lat="42.85239" lon="2.16576">
        <ele>490.424</ele>
        <time>2011-01-20T13:50:00Z</time>
      </trkpt>
      <trkpt lat="42.85243" lon="2.16586">
        <ele>487.877</ele>
        <time>2011-01-20T13:50:04Z</time>
      </trkpt>
      <trkpt lat="42.85247" lon="2.16612">
        <ele>482.227</ele>
        <time>2011-01-20T13:50:11Z</time>
      </trkpt>
      <trkpt lat="42.85246" lon="2.16626">
        <ele>478.076</ele>
        <time>2011-01-20T13:50:16Z</time>
      </trkpt>
      <trkpt lat="42.85242" lon="2.16639">
        <ele>473.448</ele>
        <time>2011-01-20T13:50:22Z</time>
      </trkpt>
      <trkpt lat="42.85242" lon="2.16641">
        <ele>472.454</ele>
        <time>2011-01-20T13:50:23Z</time>
      </trkpt>
      <trkpt lat="42.85243" lon="2.16658">
        <ele>467.121</ele>
        <time>2011-01-20T13:50:29Z</time>
      </trkpt>
      <trkpt lat="42.85244" lon="2.1667">
        <ele>461.508</ele>
        <time>2011-01-20T13:50:34Z</time>
      </trkpt>
      <trkpt lat="42.85245" lon="2.16691">
        <ele>457.997</ele>
        <time>2011-01-20T13:50:38Z</time>
      </trkpt>
      <trkpt lat="42.85244" lon="2.16734">
        <ele>452.327</ele>
        <time>2011-01-20T13:50:45Z</time>
      </trkpt>
      <trkpt lat="42.85243" lon="2.16751">
        <ele>448.848</ele>
        <time>2011-01-20T13:50:50Z</time>
      </trkpt>
      <trkpt lat="42.8525" lon="2.16767">
        <ele>446.464</ele>
        <time>2011-01-20T13:50:54Z</time>
      </trkpt>
      <trkpt lat="42.85263" lon="2.16774">
        <ele>442.018</ele>
        <time>2011-01-20T13:50:58Z</time>
      </trkpt>
      <trkpt lat="42.85279" lon="2.16779">
        <ele>437.121</ele>
        <time>2011-01-20T13:51:03Z</time>
      </trkpt>
      <trkpt lat="42.85281" lon="2.16781">
        <ele>436.305</ele>
        <time>2011-01-20T13:51:04Z</time>
      </trkpt>
      <trkpt lat="42.85298" lon="2.16799">
        <ele>430.219</ele>
        <time>2011-01-20T13:51:11Z</time>
      </trkpt>
      <trkpt lat="42.85313" lon="2.16812">
        <ele>425.414</ele>
        <time>2011-01-20T13:51:17Z</time>
      </trkpt>
      <trkpt lat="42.85323" lon="2.16819">
        <ele>423.768</ele>
        <time>2011-01-20T13:51:20Z</time>
      </trkpt>
      <trkpt lat="42.8534" lon="2.16831">
        <ele>418.593</ele>
        <time>2011-01-20T13:51:25Z</time>
      </trkpt>
      <trkpt lat="42.85355" lon="2.16843">
        <ele>413.735</ele>
        <time>2011-01-20T13:51:30Z</time>
      </trkpt>
      <trkpt lat="42.85373" lon="2.16846">
        <ele>408.932</ele>
        <time>2011-01-20T13:51:35Z</time>
      </trkpt>
      <trkpt lat="42.85391" lon="2.16851">
        <ele>404.223</ele>
        <time>2011-01-20T13:51:40Z</time>
      </trkpt>
      <trkpt lat="42.854" lon="2.16854">
        <ele>401.522</ele>
        <time>2011-01-20T13:51:43Z</time>
      </trkpt>
      <trkpt lat="42.85404" lon="2.16852">
        <ele>400.801</ele>
        <time>2011-01-20T13:51:45Z</time>
      </trkpt>
      <trkpt lat="42.85407" lon="2.16845">
        <ele>399.407</ele>
        <time>2011-01-20T13:51:48Z</time>
      </trkpt>
      <trkpt lat="42.85409" lon="2.16843">
        <ele>399.695</ele>
        <time>2011-01-20T13:51:55Z</time>
      </trkpt>
      <trkpt lat="42.85409" lon="2.16844">
        <ele>399.641</ele>
        <time>2011-01-20T13:51:56Z</time>
      </trkpt>
      <trkpt lat="42.8541" lon="2.1686">
        <ele>399.36</ele>
        <time>2011-01-20T13:52:01Z</time>
      </trkpt>
      <trkpt lat="42.85412" lon="2.16877">
        <ele>396.76</ele>
        <time>2011-01-20T13:52:06Z</time>
      </trkpt>
      <trkpt lat="42.85412" lon="2.16878">
        <ele>396.483</ele>
        <time>2011-01-20T13:52:07Z</time>
      </trkpt>
      <trkpt lat="42.85411" lon="2.16882">
        <ele>396.373</ele>
        <time>2011-01-20T13:52:09Z</time>
      </trkpt>
      <trkpt lat="42.8541" lon="2.16892">
        <ele>395.926</ele>
        <time>2011-01-20T13:52:16Z</time>
      </trkpt>
      <trkpt lat="42.85407" lon="2.16903">
        <ele>395.198</ele>
        <time>2011-01-20T13:53:20Z</time>
      </trkpt>
      <trkpt lat="42.85406" lon="2.16908">
        <ele>394.055</ele>
        <time>2011-01-20T13:53:22Z</time>
      </trkpt>
      <trkpt lat="42.85411" lon="2.1692">
        <ele>392.111</ele>
        <time>2011-01-20T13:53:26Z</time>
      </trkpt>
      <trkpt lat="42.85407" lon="2.16941">
        <ele>389.734</ele>
        <time>2011-01-20T13:53:30Z</time>
      </trkpt>
      <trkpt lat="42.85407" lon="2.16946">
        <ele>389.216</ele>
        <time>2011-01-20T13:53:31Z</time>
      </trkpt>
      <trkpt lat="42.85404" lon="2.16993">
        <ele>384.502</ele>
        <time>2011-01-20T13:53:39Z</time>
      </trkpt>
      <trkpt lat="42.85401" lon="2.17004">
        <ele>382.491</ele>
        <time>2011-01-20T13:53:42Z</time>
      </trkpt>
      <trkpt lat="42.85404" lon="2.17005">
        <ele>381.076</ele>
        <time>2011-01-20T13:53:47Z</time>
      </trkpt>
      <trkpt lat="42.85404" lon="2.17004">
        <ele>381.046</ele>
        <time>2011-01-20T13:53:53Z</time>
      </trkpt>
      <trkpt lat="42.85404" lon="2.16989">
        <ele>382.191</ele>
        <time>2011-01-20T13:53:59Z</time>
      </trkpt>
      <trkpt lat="42.85406" lon="2.16979">
        <ele>383.728</ele>
        <time>2011-01-20T13:54:04Z</time>
      </trkpt>
      <trkpt lat="42.85407" lon="2.16964">
        <ele>385.025</ele>
        <time>2011-01-20T13:54:09Z</time>
      </trkpt>
      <trkpt lat="42.85411" lon="2.16944">
        <ele>386.567</ele>
        <time>2011-01-20T13:54:17Z</time>
      </trkpt>
      <trkpt lat="42.85413" lon="2.16934">
        <ele>387.912</ele>
        <time>2011-01-20T13:54:21Z</time>
      </trkpt>
      <trkpt lat="42.85418" lon="2.16918">
        <ele>389.747</ele>
        <time>2011-01-20T13:54:28Z</time>
      </trkpt>
      <trkpt lat="42.8542" lon="2.16904">
        <ele>391.13</ele>
        <time>2011-01-20T13:54:33Z</time>
      </trkpt>
      <trkpt lat="42.8542" lon="2.16888">
        <ele>392.878</ele>
        <time>2011-01-20T13:54:39Z</time>
      </trkpt>
      <trkpt lat="42.8542" lon="2.16877">
        <ele>393.811</ele>
        <time>2011-01-20T13:54:43Z</time>
      </trkpt>
      <trkpt lat="42.85418" lon="2.16869">
        <ele>395.423</ele>
        <time>2011-01-20T13:54:47Z</time>
      </trkpt>
      <trkpt lat="42.85412" lon="2.16853">
        <ele>397.882</ele>
        <time>2011-01-20T13:54:54Z</time>
      </trkpt>
      <trkpt lat="42.85412" lon="2.16846">
        <ele>399.383</ele>
        <time>2011-01-20T13:54:57Z</time>
      </trkpt>
      <trkpt lat="42.85409" lon="2.16828">
        <ele>400.491</ele>
        <time>2011-01-20T13:55:03Z</time>
      </trkpt>
      <trkpt lat="42.85408" lon="2.1682">
        <ele>401.229</ele>
        <time>2011-01-20T13:55:06Z</time>
      </trkpt>
      <trkpt lat="42.85405" lon="2.168">
        <ele>402.503</ele>
        <time>2011-01-20T13:55:13Z</time>
      </trkpt>
      <trkpt lat="42.85401" lon="2.16791">
        <ele>403.308</ele>
        <time>2011-01-20T13:55:17Z</time>
      </trkpt>
      <trkpt lat="42.85396" lon="2.16766">
        <ele>403.414</ele>
        <time>2011-01-20T13:55:25Z</time>
      </trkpt>
      <trkpt lat="42.85398" lon="2.1674">
        <ele>404.31</ele>
        <time>2011-01-20T13:55:32Z</time>
      </trkpt>
      <trkpt lat="42.85403" lon="2.16714">
        <ele>406.885</ele>
        <time>2011-01-20T13:55:40Z</time>
      </trkpt>
      <trkpt lat="42.85412" lon="2.16699">
        <ele>408.138</ele>
        <time>2011-01-20T13:55:47Z</time>
      </trkpt>
      <trkpt lat="42.85418" lon="2.16688">
        <ele>409.679</ele>
        <time>2011-01-20T13:55:53Z</time>
      </trkpt>
      <trkpt lat="42.85422" lon="2.1668">
        <ele>410.235</ele>
        <time>2011-01-20T13:55:56Z</time>
      </trkpt>
      <trkpt lat="42.85426" lon="2.16667">
        <ele>411.716</ele>
        <time>2011-01-20T13:56:02Z</time>
      </trkpt>
      <trkpt lat="42.85433" lon="2.16657">
        <ele>412.856</ele>
        <time>2011-01-20T13:56:08Z</time>
      </trkpt>
      <trkpt lat="42.85439" lon="2.16645">
        <ele>414.842</ele>
        <time>2011-01-20T13:56:15Z</time>
      </trkpt>
      <trkpt lat="42.85449" lon="2.16635">
        <ele>418.231</ele>
        <time>2011-01-20T13:56:23Z</time>
      </trkpt>
      <trkpt lat="42.85455" lon="2.16625">
        <ele>420.488</ele>
        <time>2011-01-20T13:56:31Z</time>
      </trkpt>
      <trkpt lat="42.85459" lon="2.16618">
        <ele>421.424</ele>
        <time>2011-01-20T13:56:35Z</time>
      </trkpt>
      <trkpt lat="42.85467" lon="2.16594">
        <ele>425.083</ele>
        <time>2011-01-20T13:56:47Z</time>
      </trkpt>
      <trkpt lat="42.8547" lon="2.16584">
        <ele>427.053</ele>
        <time>2011-01-20T13:56:53Z</time>
      </trkpt>
      <trkpt lat="42.85473" lon="2.16573">
        <ele>428.126</ele>
        <time>2011-01-20T13:56:59Z</time>
      </trkpt>
      <trkpt lat="42.85476" lon="2.1656">
        <ele>429.21</ele>
        <time>2011-01-20T13:57:05Z</time>
      </trkpt>
      <trkpt lat="42.85481" lon="2.16546">
        <ele>430.616</ele>
        <time>2011-01-20T13:57:11Z</time>
      </trkpt>
      <trkpt lat="42.85485" lon="2.16531">
        <ele>431.2</ele>
        <time>2011-01-20T13:57:17Z</time>
      </trkpt>
      <trkpt lat="42.85488" lon="2.16517">
        <ele>431.796</ele>
        <time>2011-01-20T13:57:23Z</time>
      </trkpt>
      <trkpt lat="42.85495" lon="2.16494">
        <ele>430.91</ele>
        <time>2011-01-20T13:57:29Z</time>
      </trkpt>
      <trkpt lat="42.85504" lon="2.16468">
        <ele>429.464</ele>
        <time>2011-01-20T13:57:34Z</time>
      </trkpt>
      <trkpt lat="42.85515" lon="2.16447">
        <ele>429.112</ele>
        <time>2011-01-20T13:57:39Z</time>
      </trkpt>
      <trkpt lat="42.85521" lon="2.16431">
        <ele>429.325</ele>
        <time>2011-01-20T13:57:43Z</time>
      </trkpt>
      <trkpt lat="42.85529" lon="2.16399">
        <ele>429.195</ele>
        <time>2011-01-20T13:57:49Z</time>
      </trkpt>
      <trkpt lat="42.85537" lon="2.16378">
        <ele>429.304</ele>
        <time>2011-01-20T13:57:54Z</time>
      </trkpt>
      <trkpt lat="42.85544" lon="2.16364">
        <ele>429.641</ele>
        <time>2011-01-20T13:57:59Z</time>
      </trkpt>
      <trkpt lat="42.85546" lon="2.16362">
        <ele>429.43</ele>
        <time>2011-01-20T13:58:00Z</time>
      </trkpt>
      <trkpt lat="42.85558" lon="2.16368">
        <ele>426.964</ele>
        <time>2011-01-20T13:58:04Z</time>
      </trkpt>
      <trkpt lat="42.85559" lon="2.16374">
        <ele>426.965</ele>
        <time>2011-01-20T13:58:05Z</time>
      </trkpt>
      <trkpt lat="42.85564" lon="2.16393">
        <ele>424.317</ele>
        <time>2011-01-20T13:58:09Z</time>
      </trkpt>
      <trkpt lat="42.85575" lon="2.16387">
        <ele>422.271</ele>
        <time>2011-01-20T13:58:12Z</time>
      </trkpt>
      <trkpt lat="42.85598" lon="2.16369">
        <ele>418.821</ele>
        <time>2011-01-20T13:58:17Z</time>
      </trkpt>
      <trkpt lat="42.85619" lon="2.16351">
        <ele>414.862</ele>
        <time>2011-01-20T13:58:22Z</time>
      </trkpt>
      <trkpt lat="42.85622" lon="2.16347">
        <ele>414.018</ele>
        <time>2011-01-20T13:58:23Z</time>
      </trkpt>
      <trkpt lat="42.85634" lon="2.16327">
        <ele>409.987</ele>
        <time>2011-01-20T13:58:28Z</time>
      </trkpt>
      <trkpt lat="42.85638" lon="2.16324">
        <ele>409.156</ele>
        <time>2011-01-20T13:58:30Z</time>
      </trkpt>
      <trkpt lat="42.85647" lon="2.16327">
        <ele>406.709</ele>
        <time>2011-01-20T13:58:33Z</time>
      </trkpt>
      <trkpt lat="42.8565" lon="2.16331">
        <ele>406.18</ele>
        <time>2011-01-20T13:58:34Z</time>
      </trkpt>
      <trkpt lat="42.85662" lon="2.16365">
        <ele>404</ele>
        <time>2011-01-20T13:58:39Z</time>
      </trkpt>
      <trkpt lat="42.85662" lon="2.16394">
        <ele>401.214</ele>
        <time>2011-01-20T13:58:43Z</time>
      </trkpt>
      <trkpt lat="42.85661" lon="2.16398">
        <ele>400.297</ele>
        <time>2011-01-20T13:58:44Z</time>
      </trkpt>
      <trkpt lat="42.8567" lon="2.16408">
        <ele>396.612</ele>
        <time>2011-01-20T13:58:49Z</time>
      </trkpt>
      <trkpt lat="42.85675" lon="2.16402">
        <ele>395.597</ele>
        <time>2011-01-20T13:58:51Z</time>
      </trkpt>
      <trkpt lat="42.85684" lon="2.16392">
        <ele>394.611</ele>
        <time>2011-01-20T13:58:54Z</time>
      </trkpt>
      <trkpt lat="42.85709" lon="2.16367">
        <ele>392.184</ele>
        <time>2011-01-20T13:58:59Z</time>
      </trkpt>
      <trkpt lat="42.85727" lon="2.16344">
        <ele>388.596</ele>
        <time>2011-01-20T13:59:03Z</time>
      </trkpt>
      <trkpt lat="42.85744" lon="2.16305">
        <ele>384.927</ele>
        <time>2011-01-20T13:59:08Z</time>
      </trkpt>
      <trkpt lat="42.85748" lon="2.16294">
        <ele>383.972</ele>
        <time>2011-01-20T13:59:09Z</time>
      </trkpt>
      <trkpt lat="42.85755" lon="2.16253">
        <ele>381.244</ele>
        <time>2011-01-20T13:59:13Z</time>
      </trkpt>
      <trkpt lat="42.85754" lon="2.16234">
        <ele>380.874</ele>
        <time>2011-01-20T13:59:15Z</time>
      </trkpt>
      <trkpt lat="42.85754" lon="2.16216">
        <ele>380.346</ele>
        <time>2011-01-20T13:59:17Z</time>
      </trkpt>
      <trkpt lat="42.85753" lon="2.16201">
        <ele>379.606</ele>
        <time>2011-01-20T13:59:19Z</time>
      </trkpt>
      <trkpt lat="42.85738" lon="2.16168">
        <ele>377.955</ele>
        <time>2011-01-20T13:59:24Z</time>
      </trkpt>
      <trkpt lat="42.85732" lon="2.16156">
        <ele>376.817</ele>
        <time>2011-01-20T13:59:27Z</time>
      </trkpt>
      <trkpt lat="42.8574" lon="2.16158">
        <ele>375.41</ele>
        <time>2011-01-20T13:59:31Z</time>
      </trkpt>
      <trkpt lat="42.85756" lon="2.16172">
        <ele>374.056</ele>
        <time>2011-01-20T13:59:35Z</time>
      </trkpt>
      <trkpt lat="42.85767" lon="2.16177">
        <ele>373.308</ele>
        <time>2011-01-20T13:59:37Z</time>
      </trkpt>
      <trkpt lat="42.85795" lon="2.16196">
        <ele>370.627</ele>
        <time>2011-01-20T13:59:42Z</time>
      </trkpt>
      <trkpt lat="42.858" lon="2.162">
        <ele>370.632</ele>
        <time>2011-01-20T13:59:43Z</time>
      </trkpt>
      <trkpt lat="42.8581" lon="2.16206">
        <ele>368.799</ele>
        <time>2011-01-20T13:59:45Z</time>
      </trkpt>
      <trkpt lat="42.8584" lon="2.16222">
        <ele>365.299</ele>
        <time>2011-01-20T13:59:50Z</time>
      </trkpt>
      <trkpt lat="42.85858" lon="2.16236">
        <ele>362.881</ele>
        <time>2011-01-20T13:59:53Z</time>
      </trkpt>
      <trkpt lat="42.85872" lon="2.16264">
        <ele>359.558</ele>
        <time>2011-01-20T13:59:58Z</time>
      </trkpt>
      <trkpt lat="42.85879" lon="2.16272">
        <ele>358.121</ele>
        <time>2011-01-20T14:00:01Z</time>
      </trkpt>
      <trkpt lat="42.85885" lon="2.1627">
        <ele>356.998</ele>
        <time>2011-01-20T14:00:03Z</time>
      </trkpt>
      <trkpt lat="42.85904" lon="2.16262">
        <ele>353.851</ele>
        <time>2011-01-20T14:00:08Z</time>
      </trkpt>
      <trkpt lat="42.85909" lon="2.16261">
        <ele>353.302</ele>
        <time>2011-01-20T14:00:09Z</time>
      </trkpt>
      <trkpt lat="42.85924" lon="2.16261">
        <ele>351.945</ele>
        <time>2011-01-20T14:00:12Z</time>
      </trkpt>
      <trkpt lat="42.85943" lon="2.16258">
        <ele>348.644</ele>
        <time>2011-01-20T14:00:16Z</time>
      </trkpt>
      <trkpt lat="42.8596" lon="2.16239">
        <ele>346.136</ele>
        <time>2011-01-20T14:00:21Z</time>
      </trkpt>
      <trkpt lat="42.85973" lon="2.16206">
        <ele>342.043</ele>
        <time>2011-01-20T14:00:28Z</time>
      </trkpt>
      <trkpt lat="42.85988" lon="2.16202">
        <ele>339.965</ele>
        <time>2011-01-20T14:00:32Z</time>
      </trkpt>
      <trkpt lat="42.86006" lon="2.16209">
        <ele>337.534</ele>
        <time>2011-01-20T14:00:36Z</time>
      </trkpt>
      <trkpt lat="42.86022" lon="2.16223">
        <ele>335.425</ele>
        <time>2011-01-20T14:00:40Z</time>
      </trkpt>
      <trkpt lat="42.86044" lon="2.16228">
        <ele>332.568</ele>
        <time>2011-01-20T14:00:44Z</time>
      </trkpt>
      <trkpt lat="42.86072" lon="2.16235">
        <ele>328.289</ele>
        <time>2011-01-20T14:00:48Z</time>
      </trkpt>
      <trkpt lat="42.86096" lon="2.16245">
        <ele>323.786</ele>
        <time>2011-01-20T14:00:53Z</time>
      </trkpt>
      <trkpt lat="42.86105" lon="2.1625">
        <ele>322.905</ele>
        <time>2011-01-20T14:00:55Z</time>
      </trkpt>
      <trkpt lat="42.86133" lon="2.16266">
        <ele>321.103</ele>
        <time>2011-01-20T14:01:01Z</time>
      </trkpt>
      <trkpt lat="42.86169" lon="2.16289">
        <ele>319.647</ele>
        <time>2011-01-20T14:01:08Z</time>
      </trkpt>
      <trkpt lat="42.86199" lon="2.1631">
        <ele>317.423</ele>
        <time>2011-01-20T14:01:13Z</time>
      </trkpt>
      <trkpt lat="42.86239" lon="2.16346">
        <ele>312.034</ele>
        <time>2011-01-20T14:01:19Z</time>
      </trkpt>
      <trkpt lat="42.86264" lon="2.16375">
        <ele>308.702</ele>
        <time>2011-01-20T14:01:24Z</time>
      </trkpt>
      <trkpt lat="42.86267" lon="2.16395">
        <ele>306.697</ele>
        <time>2011-01-20T14:01:27Z</time>
      </trkpt>
      <trkpt lat="42.86254" lon="2.16407">
        <ele>305.655</ele>
        <time>2011-01-20T14:01:30Z</time>
      </trkpt>
      <trkpt lat="42.86238" lon="2.16407">
        <ele>304.58</ele>
        <time>2011-01-20T14:01:33Z</time>
      </trkpt>
      <trkpt lat="42.86234" lon="2.16416">
        <ele>303.868</ele>
        <time>2011-01-20T14:01:35Z</time>
      </trkpt>
      <trkpt lat="42.86239" lon="2.16428">
        <ele>302.782</ele>
        <time>2011-01-20T14:01:37Z</time>
      </trkpt>
      <trkpt lat="42.86248" lon="2.16438">
        <ele>301.881</ele>
        <time>2011-01-20T14:01:39Z</time>
      </trkpt>
      <trkpt lat="42.86294" lon="2.16476">
        <ele>297.296</ele>
        <time>2011-01-20T14:01:48Z</time>
      </trkpt>
      <trkpt lat="42.86305" lon="2.16482">
        <ele>296.215</ele>
        <time>2011-01-20T14:01:50Z</time>
      </trkpt>
      <trkpt lat="42.86324" lon="2.16488">
        <ele>294.524</ele>
        <time>2011-01-20T14:01:53Z</time>
      </trkpt>
      <trkpt lat="42.86336" lon="2.16493">
        <ele>293.054</ele>
        <time>2011-01-20T14:01:55Z</time>
      </trkpt>
      <trkpt lat="42.86348" lon="2.16498">
        <ele>291.667</ele>
        <time>2011-01-20T14:01:57Z</time>
      </trkpt>
      <trkpt lat="42.86394" lon="2.16506">
        <ele>287.396</ele>
        <time>2011-01-20T14:02:04Z</time>
      </trkpt>
      <trkpt lat="42.86431" lon="2.16514">
        <ele>283.871</ele>
        <time>2011-01-20T14:02:10Z</time>
      </trkpt>
      <trkpt lat="42.86461" lon="2.16517">
        <ele>280.666</ele>
        <time>2011-01-20T14:02:15Z</time>
      </trkpt>
      <trkpt lat="42.86476" lon="2.16524">
        <ele>279.492</ele>
        <time>2011-01-20T14:02:18Z</time>
      </trkpt>
      <trkpt lat="42.86487" lon="2.16535">
        <ele>278.313</ele>
        <time>2011-01-20T14:02:21Z</time>
      </trkpt>
      <trkpt lat="42.865" lon="2.16554">
        <ele>275.015</ele>
        <time>2011-01-20T14:02:25Z</time>
      </trkpt>
      <trkpt lat="42.8651" lon="2.16577">
        <ele>273.382</ele>
        <time>2011-01-20T14:02:29Z</time>
      </trkpt>
      <trkpt lat="42.86515" lon="2.16591">
        <ele>272.548</ele>
        <time>2011-01-20T14:02:31Z</time>
      </trkpt>
      <trkpt lat="42.86524" lon="2.16613">
        <ele>271.136</ele>
        <time>2011-01-20T14:02:35Z</time>
      </trkpt>
      <trkpt lat="42.86537" lon="2.16634">
        <ele>269.839</ele>
        <time>2011-01-20T14:02:39Z</time>
      </trkpt>
      <trkpt lat="42.86544" lon="2.16654">
        <ele>268.555</ele>
        <time>2011-01-20T14:02:42Z</time>
      </trkpt>
      <trkpt lat="42.86552" lon="2.16668">
        <ele>267.896</ele>
        <time>2011-01-20T14:02:45Z</time>
      </trkpt>
      <trkpt lat="42.86559" lon="2.16676">
        <ele>267.151</ele>
        <time>2011-01-20T14:02:47Z</time>
      </trkpt>
      <trkpt lat="42.86568" lon="2.16703">
        <ele>264.866</ele>
        <time>2011-01-20T14:02:52Z</time>
      </trkpt>
      <trkpt lat="42.86567" lon="2.16715">
        <ele>264.025</ele>
        <time>2011-01-20T14:02:54Z</time>
      </trkpt>
      <trkpt lat="42.86557" lon="2.16749">
        <ele>261.934</ele>
        <time>2011-01-20T14:02:59Z</time>
      </trkpt>
      <trkpt lat="42.86555" lon="2.16756">
        <ele>261.417</ele>
        <time>2011-01-20T14:03:00Z</time>
      </trkpt>
      <trkpt lat="42.86545" lon="2.16787">
        <ele>258.998</ele>
        <time>2011-01-20T14:03:05Z</time>
      </trkpt>
      <trkpt lat="42.86559" lon="2.168">
        <ele>257.473</ele>
        <time>2011-01-20T14:03:08Z</time>
      </trkpt>
      <trkpt lat="42.86604" lon="2.16825">
        <ele>253.963</ele>
        <time>2011-01-20T14:03:15Z</time>
      </trkpt>
      <trkpt lat="42.86637" lon="2.16861">
        <ele>250.436</ele>
        <time>2011-01-20T14:03:21Z</time>
      </trkpt>
      <trkpt lat="42.86641" lon="2.16867">
        <ele>249.979</ele>
        <time>2011-01-20T14:03:22Z</time>
      </trkpt>
      <trkpt lat="42.86661" lon="2.16876">
        <ele>247.29</ele>
        <time>2011-01-20T14:03:26Z</time>
      </trkpt>
      <trkpt lat="42.86667" lon="2.16874">
        <ele>246.537</ele>
        <time>2011-01-20T14:03:27Z</time>
      </trkpt>
      <trkpt lat="42.86691" lon="2.16851">
        <ele>242.955</ele>
        <time>2011-01-20T14:03:32Z</time>
      </trkpt>
      <trkpt lat="42.86697" lon="2.1684">
        <ele>241.255</ele>
        <time>2011-01-20T14:03:34Z</time>
      </trkpt>
      <trkpt lat="42.86711" lon="2.16803">
        <ele>238.217</ele>
        <time>2011-01-20T14:03:39Z</time>
      </trkpt>
      <trkpt lat="42.86717" lon="2.16781">
        <ele>236.322</ele>
        <time>2011-01-20T14:03:41Z</time>
      </trkpt>
      <trkpt lat="42.86724" lon="2.16736">
        <ele>232.546</ele>
        <time>2011-01-20T14:03:45Z</time>
      </trkpt>
      <trkpt lat="42.86727" lon="2.16672">
        <ele>230.102</ele>
        <time>2011-01-20T14:03:51Z</time>
      </trkpt>
      <trkpt lat="42.86726" lon="2.16626">
        <ele>228.369</ele>
        <time>2011-01-20T14:03:56Z</time>
      </trkpt>
      <trkpt lat="42.86716" lon="2.16587">
        <ele>227.679</ele>
        <time>2011-01-20T14:04:01Z</time>
      </trkpt>
      <trkpt lat="42.86712" lon="2.16581">
        <ele>227.448</ele>
        <time>2011-01-20T14:04:02Z</time>
      </trkpt>
      <trkpt lat="42.86703" lon="2.16566">
        <ele>225.778</ele>
        <time>2011-01-20T14:04:05Z</time>
      </trkpt>
      <trkpt lat="42.86689" lon="2.16534">
        <ele>222.492</ele>
        <time>2011-01-20T14:04:10Z</time>
      </trkpt>
      <trkpt lat="42.86682" lon="2.16493">
        <ele>219.302</ele>
        <time>2011-01-20T14:04:14Z</time>
      </trkpt>
      <trkpt lat="42.86685" lon="2.1644">
        <ele>215.979</ele>
        <time>2011-01-20T14:04:19Z</time>
      </trkpt>
      <trkpt lat="42.86698" lon="2.16418">
        <ele>214.121</ele>
        <time>2011-01-20T14:04:22Z</time>
      </trkpt>
      <trkpt lat="42.86714" lon="2.1641">
        <ele>213.423</ele>
        <time>2011-01-20T14:04:25Z</time>
      </trkpt>
      <trkpt lat="42.86734" lon="2.16398">
        <ele>213.961</ele>
        <time>2011-01-20T14:04:30Z</time>
      </trkpt>
      <trkpt lat="42.86759" lon="2.16383">
        <ele>213.527</ele>
        <time>2011-01-20T14:04:37Z</time>
      </trkpt>
      <trkpt lat="42.86787" lon="2.16364">
        <ele>213.107</ele>
        <time>2011-01-20T14:04:45Z</time>
      </trkpt>
      <trkpt lat="42.86791" lon="2.16361">
        <ele>212.907</ele>
        <time>2011-01-20T14:04:46Z</time>
      </trkpt>
      <trkpt lat="42.86809" lon="2.16365">
        <ele>211.847</ele>
        <time>2011-01-20T14:04:50Z</time>
      </trkpt>
      <trkpt lat="42.86813" lon="2.16374">
        <ele>211.703</ele>
        <time>2011-01-20T14:04:52Z</time>
      </trkpt>
      <trkpt lat="42.86819" lon="2.16389">
        <ele>211.626</ele>
        <time>2011-01-20T14:04:55Z</time>
      </trkpt>
      <trkpt lat="42.86831" lon="2.1643">
        <ele>210.765</ele>
        <time>2011-01-20T14:05:01Z</time>
      </trkpt>
      <trkpt lat="42.86843" lon="2.16477">
        <ele>208.461</ele>
        <time>2011-01-20T14:05:06Z</time>
      </trkpt>
      <trkpt lat="42.8686" lon="2.16545">
        <ele>204.564</ele>
        <time>2011-01-20T14:05:12Z</time>
      </trkpt>
      <trkpt lat="42.86875" lon="2.16579">
        <ele>202.76</ele>
        <time>2011-01-20T14:05:16Z</time>
      </trkpt>
      <trkpt lat="42.86887" lon="2.16583">
        <ele>201.798</ele>
        <time>2011-01-20T14:05:18Z</time>
      </trkpt>
      <trkpt lat="42.869" lon="2.16578">
        <ele>200.661</ele>
        <time>2011-01-20T14:05:20Z</time>
      </trkpt>
      <trkpt lat="42.86911" lon="2.16572">
        <ele>199.744</ele>
        <time>2011-01-20T14:05:22Z</time>
      </trkpt>
      <trkpt lat="42.86924" lon="2.16578">
        <ele>199.152</ele>
        <time>2011-01-20T14:05:25Z</time>
      </trkpt>
      <trkpt lat="42.86927" lon="2.16583">
        <ele>199.07</ele>
        <time>2011-01-20T14:05:26Z</time>
      </trkpt>
      <trkpt lat="42.86954" lon="2.16644">
        <ele>198.667</ele>
        <time>2011-01-20T14:05:36Z</time>
      </trkpt>
      <trkpt lat="42.86962" lon="2.16667">
        <ele>199.473</ele>
        <time>2011-01-20T14:05:40Z</time>
      </trkpt>
      <trkpt lat="42.86975" lon="2.16714">
        <ele>199.843</ele>
        <time>2011-01-20T14:05:48Z</time>
      </trkpt>
      <trkpt lat="42.86989" lon="2.16756">
        <ele>197.379</ele>
        <time>2011-01-20T14:05:55Z</time>
      </trkpt>
      <trkpt lat="42.87009" lon="2.16809">
        <ele>196.272</ele>
        <time>2011-01-20T14:06:03Z</time>
      </trkpt>
      <trkpt lat="42.87028" lon="2.1685">
        <ele>195.004</ele>
        <time>2011-01-20T14:06:09Z</time>
      </trkpt>
      <trkpt lat="42.87031" lon="2.16856">
        <ele>195.077</ele>
        <time>2011-01-20T14:06:10Z</time>
      </trkpt>
      <trkpt lat="42.87035" lon="2.16868">
        <ele>195.005</ele>
        <time>2011-01-20T14:06:12Z</time>
      </trkpt>
      <trkpt lat="42.87042" lon="2.16894">
        <ele>194.957</ele>
        <time>2011-01-20T14:06:16Z</time>
      </trkpt>
      <trkpt lat="42.87049" lon="2.16934">
        <ele>194.966</ele>
        <time>2011-01-20T14:06:22Z</time>
      </trkpt>
      <trkpt lat="42.87051" lon="2.16996">
        <ele>193.604</ele>
        <time>2011-01-20T14:06:30Z</time>
      </trkpt>
      <trkpt lat="42.87054" lon="2.17057">
        <ele>193.216</ele>
        <time>2011-01-20T14:06:37Z</time>
      </trkpt>
      <trkpt lat="42.87052" lon="2.17109">
        <ele>192.16</ele>
        <time>2011-01-20T14:06:43Z</time>
      </trkpt>
      <trkpt lat="42.87047" lon="2.17134">
        <ele>190.698</ele>
        <time>2011-01-20T14:06:46Z</time>
      </trkpt>
      <trkpt lat="42.87051" lon="2.17176">
        <ele>189.217</ele>
        <time>2011-01-20T14:06:51Z</time>
      </trkpt>
      <trkpt lat="42.87077" lon="2.17249">
        <ele>188.901</ele>
        <time>2011-01-20T14:07:01Z</time>
      </trkpt>
      <trkpt lat="42.87094" lon="2.17302">
        <ele>188.108</ele>
        <time>2011-01-20T14:07:08Z</time>
      </trkpt>
      <trkpt lat="42.87104" lon="2.1737">
        <ele>187.659</ele>
        <time>2011-01-20T14:07:16Z</time>
      </trkpt>
      <trkpt lat="42.8711" lon="2.17411">
        <ele>187.157</ele>
        <time>2011-01-20T14:07:21Z</time>
      </trkpt>
      <trkpt lat="42.87122" lon="2.17432">
        <ele>186.845</ele>
        <time>2011-01-20T14:07:25Z</time>
      </trkpt>
      <trkpt lat="42.8713" lon="2.17431">
        <ele>186.833</ele>
        <time>2011-01-20T14:07:27Z</time>
      </trkpt>
      <trkpt lat="42.87151" lon="2.17421">
        <ele>189.28</ele>
        <time>2011-01-20T14:07:33Z</time>
      </trkpt>
      <trkpt lat="42.87159" lon="2.1742">
        <ele>190.888</ele>
        <time>2011-01-20T14:07:37Z</time>
      </trkpt>
      <trkpt lat="42.8716" lon="2.17423">
        <ele>192.062</ele>
        <time>2011-01-20T14:07:44Z</time>
      </trkpt>
      <trkpt lat="42.8716" lon="2.17423">
        <ele>191.278</ele>
        <time>2011-01-20T14:08:02Z</time>
      </trkpt>
    </trkseg>
  </trk>
</gpx>